<?xml version="1.0" encoding="UTF-8" standalone="no" ?>
<gpx xmlns="http://www.topografix.com/GPX/1/1" xmlns:xsi="http://www.w3.org/2001/XMLSchema-instance" xsi:schemaLocation="http://www.topografix.com/GPX/1/1 http://www.topografix.com/GPX/1/1/gpx.xsd" version="1.1" creator="VisuGPX - https://www.visugpx.com">
  <metadata>
    <name>Forêt de Marly: Joyenval</name>
    <desc><![CDATA[Parcours marche nordique]]></desc>
  </metadata>
  <trk>
    <name><![CDATA[10 - Joyenval_R2]]></name>
    <trkseg>
      <trkpt lat="48.88962" lon="2.04441">
        <ele>150.02</ele>
        <time>2023-06-10T07:27:27Z</time>
      </trkpt>
      <trkpt lat="48.88971" lon="2.04432">
        <ele>149.85</ele>
        <time>2023-06-10T07:27:45Z</time>
      </trkpt>
      <trkpt lat="48.88981" lon="2.04424">
        <ele>149.79</ele>
        <time>2023-06-10T07:27:54Z</time>
      </trkpt>
      <trkpt lat="48.88997" lon="2.04409">
        <ele>149.62</ele>
        <time>2023-06-10T07:28:09Z</time>
      </trkpt>
      <trkpt lat="48.89003" lon="2.04404">
        <ele>149.85</ele>
        <time>2023-06-10T07:28:16Z</time>
      </trkpt>
      <trkpt lat="48.89016" lon="2.04397">
        <ele>149.26</ele>
        <time>2023-06-10T07:28:31Z</time>
      </trkpt>
      <trkpt lat="48.89028" lon="2.04386">
        <ele>149.52</ele>
        <time>2023-06-10T07:28:43Z</time>
      </trkpt>
      <trkpt lat="48.89029" lon="2.04383">
        <ele>149.26</ele>
        <time>2023-06-10T07:28:45Z</time>
      </trkpt>
      <trkpt lat="48.89042" lon="2.04364">
        <ele>149.46</ele>
        <time>2023-06-10T07:29:01Z</time>
      </trkpt>
      <trkpt lat="48.89059" lon="2.04354">
        <ele>148.81</ele>
        <time>2023-06-10T07:29:16Z</time>
      </trkpt>
      <trkpt lat="48.89075" lon="2.04339">
        <ele>148.13</ele>
        <time>2023-06-10T07:29:31Z</time>
      </trkpt>
      <trkpt lat="48.89082" lon="2.04334">
        <ele>148.1</ele>
        <time>2023-06-10T07:29:39Z</time>
      </trkpt>
      <trkpt lat="48.89097" lon="2.04319">
        <ele>147.55</ele>
        <time>2023-06-10T07:29:53Z</time>
      </trkpt>
      <trkpt lat="48.89105" lon="2.04315">
        <ele>147.9</ele>
        <time>2023-06-10T07:29:57Z</time>
      </trkpt>
      <trkpt lat="48.8912" lon="2.04298">
        <ele>147.51</ele>
        <time>2023-06-10T07:30:13Z</time>
      </trkpt>
      <trkpt lat="48.8914" lon="2.04281">
        <ele>146.84</ele>
        <time>2023-06-10T07:30:29Z</time>
      </trkpt>
      <trkpt lat="48.8916" lon="2.04266">
        <ele>145.9</ele>
        <time>2023-06-10T07:30:46Z</time>
      </trkpt>
      <trkpt lat="48.89179" lon="2.04249">
        <ele>145.81</ele>
        <time>2023-06-10T07:31:02Z</time>
      </trkpt>
      <trkpt lat="48.89188" lon="2.04239">
        <ele>145.49</ele>
        <time>2023-06-10T07:31:11Z</time>
      </trkpt>
      <trkpt lat="48.89207" lon="2.04221">
        <ele>144.54</ele>
        <time>2023-06-10T07:31:28Z</time>
      </trkpt>
      <trkpt lat="48.8922" lon="2.04207">
        <ele>143.97</ele>
        <time>2023-06-10T07:31:40Z</time>
      </trkpt>
      <trkpt lat="48.89223" lon="2.04204">
        <ele>143.86</ele>
        <time>2023-06-10T07:31:42Z</time>
      </trkpt>
      <trkpt lat="48.89238" lon="2.0419">
        <ele>143.78</ele>
        <time>2023-06-10T07:31:48Z</time>
      </trkpt>
      <trkpt lat="48.89253" lon="2.04176">
        <ele>143.46</ele>
        <time>2023-06-10T07:31:58Z</time>
      </trkpt>
      <trkpt lat="48.89255" lon="2.04174">
        <ele>143.46</ele>
        <time>2023-06-10T07:31:59Z</time>
      </trkpt>
      <trkpt lat="48.89275" lon="2.04163">
        <ele>142.23</ele>
        <time>2023-06-10T07:32:14Z</time>
      </trkpt>
      <trkpt lat="48.89291" lon="2.04152">
        <ele>140.74</ele>
        <time>2023-06-10T07:32:30Z</time>
      </trkpt>
      <trkpt lat="48.89309" lon="2.04135">
        <ele>139.6</ele>
        <time>2023-06-10T07:32:44Z</time>
      </trkpt>
      <trkpt lat="48.89329" lon="2.04115">
        <ele>138.29</ele>
        <time>2023-06-10T07:33:00Z</time>
      </trkpt>
      <trkpt lat="48.89336" lon="2.04109">
        <ele>137.53</ele>
        <time>2023-06-10T07:33:06Z</time>
      </trkpt>
      <trkpt lat="48.89347" lon="2.04099">
        <ele>136.56</ele>
        <time>2023-06-10T07:33:13Z</time>
      </trkpt>
      <trkpt lat="48.89364" lon="2.04086">
        <ele>135.2</ele>
        <time>2023-06-10T07:33:28Z</time>
      </trkpt>
      <trkpt lat="48.89386" lon="2.04069">
        <ele>133.77</ele>
        <time>2023-06-10T07:33:39Z</time>
      </trkpt>
      <trkpt lat="48.89391" lon="2.04065">
        <ele>132.94</ele>
        <time>2023-06-10T07:33:43Z</time>
      </trkpt>
      <trkpt lat="48.89407" lon="2.04054">
        <ele>131.58</ele>
        <time>2023-06-10T07:33:52Z</time>
      </trkpt>
      <trkpt lat="48.89416" lon="2.04053">
        <ele>129.24</ele>
        <time>2023-06-10T07:34:02Z</time>
      </trkpt>
      <trkpt lat="48.89417" lon="2.04054">
        <ele>129.49</ele>
        <time>2023-06-10T07:34:03Z</time>
      </trkpt>
      <trkpt lat="48.89418" lon="2.04054">
        <ele>129.73</ele>
        <time>2023-06-10T07:34:04Z</time>
      </trkpt>
      <trkpt lat="48.89419" lon="2.04055">
        <ele>129.74</ele>
        <time>2023-06-10T07:34:05Z</time>
      </trkpt>
      <trkpt lat="48.89433" lon="2.04072">
        <ele>127.7</ele>
        <time>2023-06-10T07:34:20Z</time>
      </trkpt>
      <trkpt lat="48.89457" lon="2.04077">
        <ele>127.53</ele>
        <time>2023-06-10T07:34:34Z</time>
      </trkpt>
      <trkpt lat="48.89478" lon="2.04094">
        <ele>127.44</ele>
        <time>2023-06-10T07:34:50Z</time>
      </trkpt>
      <trkpt lat="48.89495" lon="2.04117">
        <ele>126.67</ele>
        <time>2023-06-10T07:35:05Z</time>
      </trkpt>
      <trkpt lat="48.89497" lon="2.04119">
        <ele>126.72</ele>
        <time>2023-06-10T07:35:07Z</time>
      </trkpt>
      <trkpt lat="48.89506" lon="2.04129">
        <ele>125.37</ele>
        <time>2023-06-10T07:35:16Z</time>
      </trkpt>
      <trkpt lat="48.89509" lon="2.04135">
        <ele>125</ele>
        <time>2023-06-10T07:35:19Z</time>
      </trkpt>
      <trkpt lat="48.89514" lon="2.0414">
        <ele>124.78</ele>
        <time>2023-06-10T07:35:22Z</time>
      </trkpt>
      <trkpt lat="48.89515" lon="2.04144">
        <ele>124.95</ele>
        <time>2023-06-10T07:35:23Z</time>
      </trkpt>
      <trkpt lat="48.89516" lon="2.04146">
        <ele>124.71</ele>
        <time>2023-06-10T07:35:24Z</time>
      </trkpt>
      <trkpt lat="48.89518" lon="2.04147">
        <ele>124.88</ele>
        <time>2023-06-10T07:35:25Z</time>
      </trkpt>
      <trkpt lat="48.89519" lon="2.04147">
        <ele>125.13</ele>
        <time>2023-06-10T07:35:26Z</time>
      </trkpt>
      <trkpt lat="48.89529" lon="2.04153">
        <ele>122.72</ele>
        <time>2023-06-10T07:35:39Z</time>
      </trkpt>
      <trkpt lat="48.8954" lon="2.04143">
        <ele>119.62</ele>
        <time>2023-06-10T07:35:53Z</time>
      </trkpt>
      <trkpt lat="48.89553" lon="2.04131">
        <ele>116.33</ele>
        <time>2023-06-10T07:36:08Z</time>
      </trkpt>
      <trkpt lat="48.89555" lon="2.04128">
        <ele>115.1</ele>
        <time>2023-06-10T07:36:11Z</time>
      </trkpt>
      <trkpt lat="48.89561" lon="2.04116">
        <ele>114.06</ele>
        <time>2023-06-10T07:36:19Z</time>
      </trkpt>
      <trkpt lat="48.89561" lon="2.04115">
        <ele>113.67</ele>
        <time>2023-06-10T07:36:20Z</time>
      </trkpt>
      <trkpt lat="48.89561" lon="2.04113">
        <ele>113.74</ele>
        <time>2023-06-10T07:36:21Z</time>
      </trkpt>
      <trkpt lat="48.89561" lon="2.0411">
        <ele>113.72</ele>
        <time>2023-06-10T07:36:22Z</time>
      </trkpt>
      <trkpt lat="48.89561" lon="2.04107">
        <ele>113.62</ele>
        <time>2023-06-10T07:36:24Z</time>
      </trkpt>
      <trkpt lat="48.89557" lon="2.04092">
        <ele>113.38</ele>
        <time>2023-06-10T07:36:33Z</time>
      </trkpt>
      <trkpt lat="48.89549" lon="2.04074">
        <ele>113.93</ele>
        <time>2023-06-10T07:36:43Z</time>
      </trkpt>
      <trkpt lat="48.89543" lon="2.04064">
        <ele>113.26</ele>
        <time>2023-06-10T07:36:49Z</time>
      </trkpt>
      <trkpt lat="48.89535" lon="2.04052">
        <ele>113.37</ele>
        <time>2023-06-10T07:36:56Z</time>
      </trkpt>
      <trkpt lat="48.89522" lon="2.04029">
        <ele>113.01</ele>
        <time>2023-06-10T07:37:08Z</time>
      </trkpt>
      <trkpt lat="48.89511" lon="2.0401">
        <ele>112.88</ele>
        <time>2023-06-10T07:37:17Z</time>
      </trkpt>
      <trkpt lat="48.89508" lon="2.04004">
        <ele>113.49</ele>
        <time>2023-06-10T07:37:20Z</time>
      </trkpt>
      <trkpt lat="48.89507" lon="2.04003">
        <ele>113.2</ele>
        <time>2023-06-10T07:37:21Z</time>
      </trkpt>
      <trkpt lat="48.89505" lon="2.03995">
        <ele>113.25</ele>
        <time>2023-06-10T07:37:25Z</time>
      </trkpt>
      <trkpt lat="48.89504" lon="2.03994">
        <ele>113.18</ele>
        <time>2023-06-10T07:37:26Z</time>
      </trkpt>
      <trkpt lat="48.89492" lon="2.03978">
        <ele>112.66</ele>
        <time>2023-06-10T07:37:37Z</time>
      </trkpt>
      <trkpt lat="48.89482" lon="2.03964">
        <ele>112.64</ele>
        <time>2023-06-10T07:37:44Z</time>
      </trkpt>
      <trkpt lat="48.8948" lon="2.0396">
        <ele>112.56</ele>
        <time>2023-06-10T07:37:46Z</time>
      </trkpt>
      <trkpt lat="48.89479" lon="2.03958">
        <ele>112.44</ele>
        <time>2023-06-10T07:37:47Z</time>
      </trkpt>
      <trkpt lat="48.89478" lon="2.03957">
        <ele>112.42</ele>
        <time>2023-06-10T07:37:48Z</time>
      </trkpt>
      <trkpt lat="48.89477" lon="2.03955">
        <ele>112.16</ele>
        <time>2023-06-10T07:37:49Z</time>
      </trkpt>
      <trkpt lat="48.89477" lon="2.03953">
        <ele>112.59</ele>
        <time>2023-06-10T07:37:50Z</time>
      </trkpt>
      <trkpt lat="48.89465" lon="2.03935">
        <ele>112.48</ele>
        <time>2023-06-10T07:37:59Z</time>
      </trkpt>
      <trkpt lat="48.89463" lon="2.03933">
        <ele>112.7</ele>
        <time>2023-06-10T07:38:01Z</time>
      </trkpt>
      <trkpt lat="48.89462" lon="2.03931">
        <ele>112.52</ele>
        <time>2023-06-10T07:38:02Z</time>
      </trkpt>
      <trkpt lat="48.89461" lon="2.03929">
        <ele>112.57</ele>
        <time>2023-06-10T07:38:03Z</time>
      </trkpt>
      <trkpt lat="48.89459" lon="2.03926">
        <ele>112.37</ele>
        <time>2023-06-10T07:38:05Z</time>
      </trkpt>
      <trkpt lat="48.89458" lon="2.03925">
        <ele>112.45</ele>
        <time>2023-06-10T07:38:06Z</time>
      </trkpt>
      <trkpt lat="48.89443" lon="2.039">
        <ele>112.01</ele>
        <time>2023-06-10T07:38:18Z</time>
      </trkpt>
      <trkpt lat="48.8944" lon="2.03896">
        <ele>111.77</ele>
        <time>2023-06-10T07:38:21Z</time>
      </trkpt>
      <trkpt lat="48.89437" lon="2.03892">
        <ele>111.57</ele>
        <time>2023-06-10T07:38:23Z</time>
      </trkpt>
      <trkpt lat="48.89434" lon="2.03887">
        <ele>112.28</ele>
        <time>2023-06-10T07:38:26Z</time>
      </trkpt>
      <trkpt lat="48.89432" lon="2.03884">
        <ele>112.22</ele>
        <time>2023-06-10T07:38:27Z</time>
      </trkpt>
      <trkpt lat="48.89431" lon="2.03883">
        <ele>111.67</ele>
        <time>2023-06-10T07:38:28Z</time>
      </trkpt>
      <trkpt lat="48.89427" lon="2.03874">
        <ele>112.26</ele>
        <time>2023-06-10T07:38:32Z</time>
      </trkpt>
      <trkpt lat="48.89425" lon="2.03872">
        <ele>112.51</ele>
        <time>2023-06-10T07:38:33Z</time>
      </trkpt>
      <trkpt lat="48.89424" lon="2.0387">
        <ele>112.09</ele>
        <time>2023-06-10T07:38:34Z</time>
      </trkpt>
      <trkpt lat="48.89423" lon="2.03867">
        <ele>112.59</ele>
        <time>2023-06-10T07:38:35Z</time>
      </trkpt>
      <trkpt lat="48.89422" lon="2.03865">
        <ele>112.39</ele>
        <time>2023-06-10T07:38:36Z</time>
      </trkpt>
      <trkpt lat="48.89421" lon="2.03862">
        <ele>111.84</ele>
        <time>2023-06-10T07:38:37Z</time>
      </trkpt>
      <trkpt lat="48.89418" lon="2.03852">
        <ele>111.98</ele>
        <time>2023-06-10T07:38:41Z</time>
      </trkpt>
      <trkpt lat="48.89416" lon="2.0385">
        <ele>111.9</ele>
        <time>2023-06-10T07:38:42Z</time>
      </trkpt>
      <trkpt lat="48.89415" lon="2.03848">
        <ele>111.65</ele>
        <time>2023-06-10T07:38:43Z</time>
      </trkpt>
      <trkpt lat="48.89408" lon="2.03826">
        <ele>111.21</ele>
        <time>2023-06-10T07:38:53Z</time>
      </trkpt>
      <trkpt lat="48.89406" lon="2.03821">
        <ele>111.78</ele>
        <time>2023-06-10T07:38:55Z</time>
      </trkpt>
      <trkpt lat="48.89404" lon="2.03802">
        <ele>111.55</ele>
        <time>2023-06-10T07:39:03Z</time>
      </trkpt>
      <trkpt lat="48.89404" lon="2.03799">
        <ele>111.68</ele>
        <time>2023-06-10T07:39:04Z</time>
      </trkpt>
      <trkpt lat="48.89403" lon="2.03797">
        <ele>111.54</ele>
        <time>2023-06-10T07:39:05Z</time>
      </trkpt>
      <trkpt lat="48.89402" lon="2.03794">
        <ele>111.2</ele>
        <time>2023-06-10T07:39:06Z</time>
      </trkpt>
      <trkpt lat="48.89402" lon="2.03793">
        <ele>111.32</ele>
        <time>2023-06-10T07:39:07Z</time>
      </trkpt>
      <trkpt lat="48.89402" lon="2.0379">
        <ele>111.09</ele>
        <time>2023-06-10T07:39:08Z</time>
      </trkpt>
      <trkpt lat="48.89395" lon="2.03773">
        <ele>111.41</ele>
        <time>2023-06-10T07:39:22Z</time>
      </trkpt>
      <trkpt lat="48.89386" lon="2.03755">
        <ele>111.42</ele>
        <time>2023-06-10T07:39:34Z</time>
      </trkpt>
      <trkpt lat="48.89384" lon="2.03754">
        <ele>111.86</ele>
        <time>2023-06-10T07:39:35Z</time>
      </trkpt>
      <trkpt lat="48.89383" lon="2.03751">
        <ele>111.58</ele>
        <time>2023-06-10T07:39:36Z</time>
      </trkpt>
      <trkpt lat="48.89382" lon="2.0375">
        <ele>111.58</ele>
        <time>2023-06-10T07:39:37Z</time>
      </trkpt>
      <trkpt lat="48.89382" lon="2.03747">
        <ele>111.02</ele>
        <time>2023-06-10T07:39:38Z</time>
      </trkpt>
      <trkpt lat="48.8937" lon="2.03716">
        <ele>111.49</ele>
        <time>2023-06-10T07:39:54Z</time>
      </trkpt>
      <trkpt lat="48.89355" lon="2.03682">
        <ele>111.32</ele>
        <time>2023-06-10T07:40:08Z</time>
      </trkpt>
      <trkpt lat="48.89346" lon="2.03659">
        <ele>111.35</ele>
        <time>2023-06-10T07:40:18Z</time>
      </trkpt>
      <trkpt lat="48.89339" lon="2.03633">
        <ele>111.8</ele>
        <time>2023-06-10T07:40:30Z</time>
      </trkpt>
      <trkpt lat="48.89337" lon="2.03626">
        <ele>111.56</ele>
        <time>2023-06-10T07:40:33Z</time>
      </trkpt>
      <trkpt lat="48.89333" lon="2.03611">
        <ele>111.53</ele>
        <time>2023-06-10T07:40:40Z</time>
      </trkpt>
      <trkpt lat="48.89332" lon="2.03608">
        <ele>111.64</ele>
        <time>2023-06-10T07:40:41Z</time>
      </trkpt>
      <trkpt lat="48.89332" lon="2.03607">
        <ele>111.66</ele>
        <time>2023-06-10T07:40:42Z</time>
      </trkpt>
      <trkpt lat="48.89332" lon="2.03605">
        <ele>111.47</ele>
        <time>2023-06-10T07:40:43Z</time>
      </trkpt>
      <trkpt lat="48.89331" lon="2.03603">
        <ele>111.62</ele>
        <time>2023-06-10T07:40:44Z</time>
      </trkpt>
      <trkpt lat="48.8933" lon="2.03597">
        <ele>111.03</ele>
        <time>2023-06-10T07:40:47Z</time>
      </trkpt>
      <trkpt lat="48.89329" lon="2.03594">
        <ele>111.6</ele>
        <time>2023-06-10T07:40:48Z</time>
      </trkpt>
      <trkpt lat="48.89324" lon="2.03573">
        <ele>110.91</ele>
        <time>2023-06-10T07:41:00Z</time>
      </trkpt>
      <trkpt lat="48.89325" lon="2.03566">
        <ele>110.67</ele>
        <time>2023-06-10T07:41:05Z</time>
      </trkpt>
      <trkpt lat="48.89325" lon="2.03564">
        <ele>110.78</ele>
        <time>2023-06-10T07:41:06Z</time>
      </trkpt>
      <trkpt lat="48.89325" lon="2.03562">
        <ele>111.09</ele>
        <time>2023-06-10T07:41:07Z</time>
      </trkpt>
      <trkpt lat="48.89326" lon="2.03559">
        <ele>111.13</ele>
        <time>2023-06-10T07:41:08Z</time>
      </trkpt>
      <trkpt lat="48.89327" lon="2.03557">
        <ele>110.66</ele>
        <time>2023-06-10T07:41:09Z</time>
      </trkpt>
      <trkpt lat="48.89328" lon="2.03555">
        <ele>110.78</ele>
        <time>2023-06-10T07:41:10Z</time>
      </trkpt>
      <trkpt lat="48.89329" lon="2.03553">
        <ele>110.7</ele>
        <time>2023-06-10T07:41:11Z</time>
      </trkpt>
      <trkpt lat="48.8933" lon="2.03551">
        <ele>110.02</ele>
        <time>2023-06-10T07:41:12Z</time>
      </trkpt>
      <trkpt lat="48.89331" lon="2.03548">
        <ele>111.82</ele>
        <time>2023-06-10T07:41:13Z</time>
      </trkpt>
      <trkpt lat="48.89331" lon="2.03546">
        <ele>111.8</ele>
        <time>2023-06-10T07:41:14Z</time>
      </trkpt>
      <trkpt lat="48.89331" lon="2.03544">
        <ele>111.8</ele>
        <time>2023-06-10T07:41:15Z</time>
      </trkpt>
      <trkpt lat="48.89332" lon="2.03541">
        <ele>111.78</ele>
        <time>2023-06-10T07:41:16Z</time>
      </trkpt>
      <trkpt lat="48.89332" lon="2.03539">
        <ele>111.76</ele>
        <time>2023-06-10T07:41:17Z</time>
      </trkpt>
      <trkpt lat="48.89332" lon="2.03537">
        <ele>111.75</ele>
        <time>2023-06-10T07:41:18Z</time>
      </trkpt>
      <trkpt lat="48.89333" lon="2.03534">
        <ele>110.87</ele>
        <time>2023-06-10T07:41:19Z</time>
      </trkpt>
      <trkpt lat="48.89333" lon="2.03533">
        <ele>110.58</ele>
        <time>2023-06-10T07:41:20Z</time>
      </trkpt>
      <trkpt lat="48.89334" lon="2.03531">
        <ele>110.57</ele>
        <time>2023-06-10T07:41:21Z</time>
      </trkpt>
      <trkpt lat="48.89335" lon="2.03526">
        <ele>110.64</ele>
        <time>2023-06-10T07:41:24Z</time>
      </trkpt>
      <trkpt lat="48.89335" lon="2.03523">
        <ele>110.83</ele>
        <time>2023-06-10T07:41:25Z</time>
      </trkpt>
      <trkpt lat="48.89335" lon="2.03522">
        <ele>110.56</ele>
        <time>2023-06-10T07:41:26Z</time>
      </trkpt>
      <trkpt lat="48.89335" lon="2.03519">
        <ele>110.46</ele>
        <time>2023-06-10T07:41:27Z</time>
      </trkpt>
      <trkpt lat="48.89335" lon="2.03517">
        <ele>110.4</ele>
        <time>2023-06-10T07:41:28Z</time>
      </trkpt>
      <trkpt lat="48.89335" lon="2.03515">
        <ele>110.56</ele>
        <time>2023-06-10T07:41:29Z</time>
      </trkpt>
      <trkpt lat="48.89337" lon="2.03502">
        <ele>110.45</ele>
        <time>2023-06-10T07:41:35Z</time>
      </trkpt>
      <trkpt lat="48.89337" lon="2.03501">
        <ele>110.82</ele>
        <time>2023-06-10T07:41:36Z</time>
      </trkpt>
      <trkpt lat="48.89336" lon="2.035">
        <ele>110.15</ele>
        <time>2023-06-10T07:41:46Z</time>
      </trkpt>
      <trkpt lat="48.89335" lon="2.03495">
        <ele>110.36</ele>
        <time>2023-06-10T07:41:55Z</time>
      </trkpt>
      <trkpt lat="48.89335" lon="2.03493">
        <ele>109.93</ele>
        <time>2023-06-10T07:41:56Z</time>
      </trkpt>
      <trkpt lat="48.89335" lon="2.03491">
        <ele>109.45</ele>
        <time>2023-06-10T07:41:57Z</time>
      </trkpt>
      <trkpt lat="48.89335" lon="2.03487">
        <ele>109.8</ele>
        <time>2023-06-10T07:41:59Z</time>
      </trkpt>
      <trkpt lat="48.89335" lon="2.03485">
        <ele>109.92</ele>
        <time>2023-06-10T07:42:00Z</time>
      </trkpt>
      <trkpt lat="48.89337" lon="2.03467">
        <ele>109.8</ele>
        <time>2023-06-10T07:42:10Z</time>
      </trkpt>
      <trkpt lat="48.89337" lon="2.03465">
        <ele>109.85</ele>
        <time>2023-06-10T07:42:11Z</time>
      </trkpt>
      <trkpt lat="48.89337" lon="2.03463">
        <ele>109.74</ele>
        <time>2023-06-10T07:42:12Z</time>
      </trkpt>
      <trkpt lat="48.89337" lon="2.0346">
        <ele>109.85</ele>
        <time>2023-06-10T07:42:13Z</time>
      </trkpt>
      <trkpt lat="48.89338" lon="2.03456">
        <ele>109.99</ele>
        <time>2023-06-10T07:42:15Z</time>
      </trkpt>
      <trkpt lat="48.89338" lon="2.03454">
        <ele>109.9</ele>
        <time>2023-06-10T07:42:16Z</time>
      </trkpt>
      <trkpt lat="48.89338" lon="2.03452">
        <ele>109.79</ele>
        <time>2023-06-10T07:42:17Z</time>
      </trkpt>
      <trkpt lat="48.89339" lon="2.0345">
        <ele>109.72</ele>
        <time>2023-06-10T07:42:18Z</time>
      </trkpt>
      <trkpt lat="48.89339" lon="2.03448">
        <ele>109.7</ele>
        <time>2023-06-10T07:42:19Z</time>
      </trkpt>
      <trkpt lat="48.89339" lon="2.03447">
        <ele>109.78</ele>
        <time>2023-06-10T07:42:20Z</time>
      </trkpt>
      <trkpt lat="48.8934" lon="2.03445">
        <ele>109.84</ele>
        <time>2023-06-10T07:42:21Z</time>
      </trkpt>
      <trkpt lat="48.89341" lon="2.03443">
        <ele>109.74</ele>
        <time>2023-06-10T07:42:22Z</time>
      </trkpt>
      <trkpt lat="48.89341" lon="2.03429">
        <ele>109.68</ele>
        <time>2023-06-10T07:42:28Z</time>
      </trkpt>
      <trkpt lat="48.89341" lon="2.03426">
        <ele>109.84</ele>
        <time>2023-06-10T07:42:29Z</time>
      </trkpt>
      <trkpt lat="48.89341" lon="2.03424">
        <ele>109.63</ele>
        <time>2023-06-10T07:42:30Z</time>
      </trkpt>
      <trkpt lat="48.89341" lon="2.03421">
        <ele>109.43</ele>
        <time>2023-06-10T07:42:31Z</time>
      </trkpt>
      <trkpt lat="48.89341" lon="2.03419">
        <ele>109.33</ele>
        <time>2023-06-10T07:42:32Z</time>
      </trkpt>
      <trkpt lat="48.89342" lon="2.03417">
        <ele>109.69</ele>
        <time>2023-06-10T07:42:33Z</time>
      </trkpt>
      <trkpt lat="48.89342" lon="2.03415">
        <ele>109.94</ele>
        <time>2023-06-10T07:42:34Z</time>
      </trkpt>
      <trkpt lat="48.89341" lon="2.03388">
        <ele>109.52</ele>
        <time>2023-06-10T07:42:44Z</time>
      </trkpt>
      <trkpt lat="48.89341" lon="2.03381">
        <ele>109.39</ele>
        <time>2023-06-10T07:42:47Z</time>
      </trkpt>
      <trkpt lat="48.89339" lon="2.03369">
        <ele>109.96</ele>
        <time>2023-06-10T07:42:52Z</time>
      </trkpt>
      <trkpt lat="48.89339" lon="2.03365">
        <ele>109.79</ele>
        <time>2023-06-10T07:42:53Z</time>
      </trkpt>
      <trkpt lat="48.89336" lon="2.0334">
        <ele>109.82</ele>
        <time>2023-06-10T07:43:03Z</time>
      </trkpt>
      <trkpt lat="48.89336" lon="2.03336">
        <ele>109.94</ele>
        <time>2023-06-10T07:43:05Z</time>
      </trkpt>
      <trkpt lat="48.89335" lon="2.03319">
        <ele>109.7</ele>
        <time>2023-06-10T07:43:12Z</time>
      </trkpt>
      <trkpt lat="48.89335" lon="2.03317">
        <ele>109.89</ele>
        <time>2023-06-10T07:43:13Z</time>
      </trkpt>
      <trkpt lat="48.89335" lon="2.03314">
        <ele>110.32</ele>
        <time>2023-06-10T07:43:14Z</time>
      </trkpt>
      <trkpt lat="48.89335" lon="2.03313">
        <ele>109.51</ele>
        <time>2023-06-10T07:43:15Z</time>
      </trkpt>
      <trkpt lat="48.89335" lon="2.03311">
        <ele>109.85</ele>
        <time>2023-06-10T07:43:16Z</time>
      </trkpt>
      <trkpt lat="48.89335" lon="2.03309">
        <ele>109.58</ele>
        <time>2023-06-10T07:43:17Z</time>
      </trkpt>
      <trkpt lat="48.89334" lon="2.03303">
        <ele>109.69</ele>
        <time>2023-06-10T07:43:20Z</time>
      </trkpt>
      <trkpt lat="48.89334" lon="2.03301">
        <ele>109.56</ele>
        <time>2023-06-10T07:43:21Z</time>
      </trkpt>
      <trkpt lat="48.89334" lon="2.03299">
        <ele>109.62</ele>
        <time>2023-06-10T07:43:22Z</time>
      </trkpt>
      <trkpt lat="48.89333" lon="2.03296">
        <ele>109.59</ele>
        <time>2023-06-10T07:43:23Z</time>
      </trkpt>
      <trkpt lat="48.89333" lon="2.03294">
        <ele>109.96</ele>
        <time>2023-06-10T07:43:24Z</time>
      </trkpt>
      <trkpt lat="48.89333" lon="2.03291">
        <ele>109.77</ele>
        <time>2023-06-10T07:43:25Z</time>
      </trkpt>
      <trkpt lat="48.89333" lon="2.03289">
        <ele>110</ele>
        <time>2023-06-10T07:43:26Z</time>
      </trkpt>
      <trkpt lat="48.89333" lon="2.03279">
        <ele>109.49</ele>
        <time>2023-06-10T07:43:31Z</time>
      </trkpt>
      <trkpt lat="48.89333" lon="2.03277">
        <ele>110</ele>
        <time>2023-06-10T07:43:32Z</time>
      </trkpt>
      <trkpt lat="48.89333" lon="2.03274">
        <ele>109.7</ele>
        <time>2023-06-10T07:43:33Z</time>
      </trkpt>
      <trkpt lat="48.89333" lon="2.03272">
        <ele>109.25</ele>
        <time>2023-06-10T07:43:34Z</time>
      </trkpt>
      <trkpt lat="48.89333" lon="2.0327">
        <ele>109.38</ele>
        <time>2023-06-10T07:43:35Z</time>
      </trkpt>
      <trkpt lat="48.89333" lon="2.03268">
        <ele>109.55</ele>
        <time>2023-06-10T07:43:36Z</time>
      </trkpt>
      <trkpt lat="48.89333" lon="2.03266">
        <ele>109.46</ele>
        <time>2023-06-10T07:43:37Z</time>
      </trkpt>
      <trkpt lat="48.89333" lon="2.0326">
        <ele>109.74</ele>
        <time>2023-06-10T07:43:41Z</time>
      </trkpt>
      <trkpt lat="48.89333" lon="2.03258">
        <ele>109.65</ele>
        <time>2023-06-10T07:43:42Z</time>
      </trkpt>
      <trkpt lat="48.89333" lon="2.03244">
        <ele>109.41</ele>
        <time>2023-06-10T07:43:49Z</time>
      </trkpt>
      <trkpt lat="48.89332" lon="2.03242">
        <ele>109.9</ele>
        <time>2023-06-10T07:43:50Z</time>
      </trkpt>
      <trkpt lat="48.89332" lon="2.0324">
        <ele>109.88</ele>
        <time>2023-06-10T07:43:51Z</time>
      </trkpt>
      <trkpt lat="48.89332" lon="2.03238">
        <ele>109.81</ele>
        <time>2023-06-10T07:43:52Z</time>
      </trkpt>
      <trkpt lat="48.89332" lon="2.03235">
        <ele>109.27</ele>
        <time>2023-06-10T07:43:53Z</time>
      </trkpt>
      <trkpt lat="48.89332" lon="2.03233">
        <ele>109.97</ele>
        <time>2023-06-10T07:43:54Z</time>
      </trkpt>
      <trkpt lat="48.89332" lon="2.03218">
        <ele>109.56</ele>
        <time>2023-06-10T07:44:01Z</time>
      </trkpt>
      <trkpt lat="48.8933" lon="2.03205">
        <ele>109.97</ele>
        <time>2023-06-10T07:44:08Z</time>
      </trkpt>
      <trkpt lat="48.8933" lon="2.03178">
        <ele>109.26</ele>
        <time>2023-06-10T07:44:19Z</time>
      </trkpt>
      <trkpt lat="48.89331" lon="2.0316">
        <ele>109.04</ele>
        <time>2023-06-10T07:44:27Z</time>
      </trkpt>
      <trkpt lat="48.89329" lon="2.03143">
        <ele>109.09</ele>
        <time>2023-06-10T07:44:35Z</time>
      </trkpt>
      <trkpt lat="48.89329" lon="2.03141">
        <ele>108.84</ele>
        <time>2023-06-10T07:44:36Z</time>
      </trkpt>
      <trkpt lat="48.89329" lon="2.03139">
        <ele>108.7</ele>
        <time>2023-06-10T07:44:37Z</time>
      </trkpt>
      <trkpt lat="48.89329" lon="2.03137">
        <ele>108.98</ele>
        <time>2023-06-10T07:44:38Z</time>
      </trkpt>
      <trkpt lat="48.89329" lon="2.03134">
        <ele>108.63</ele>
        <time>2023-06-10T07:44:39Z</time>
      </trkpt>
      <trkpt lat="48.89329" lon="2.03132">
        <ele>108.47</ele>
        <time>2023-06-10T07:44:40Z</time>
      </trkpt>
      <trkpt lat="48.89328" lon="2.0313">
        <ele>108.27</ele>
        <time>2023-06-10T07:44:41Z</time>
      </trkpt>
      <trkpt lat="48.89328" lon="2.03127">
        <ele>108.27</ele>
        <time>2023-06-10T07:44:42Z</time>
      </trkpt>
      <trkpt lat="48.89329" lon="2.03125">
        <ele>108.41</ele>
        <time>2023-06-10T07:44:43Z</time>
      </trkpt>
      <trkpt lat="48.89329" lon="2.03102">
        <ele>107.93</ele>
        <time>2023-06-10T07:44:51Z</time>
      </trkpt>
      <trkpt lat="48.89329" lon="2.031">
        <ele>107.97</ele>
        <time>2023-06-10T07:44:52Z</time>
      </trkpt>
      <trkpt lat="48.8933" lon="2.03095">
        <ele>107.49</ele>
        <time>2023-06-10T07:44:53Z</time>
      </trkpt>
      <trkpt lat="48.8933" lon="2.03093">
        <ele>107.48</ele>
        <time>2023-06-10T07:44:54Z</time>
      </trkpt>
      <trkpt lat="48.8933" lon="2.03092">
        <ele>107.48</ele>
        <time>2023-06-10T07:44:55Z</time>
      </trkpt>
      <trkpt lat="48.8933" lon="2.0309">
        <ele>107.75</ele>
        <time>2023-06-10T07:44:56Z</time>
      </trkpt>
      <trkpt lat="48.89331" lon="2.03088">
        <ele>108.09</ele>
        <time>2023-06-10T07:44:57Z</time>
      </trkpt>
      <trkpt lat="48.89331" lon="2.03086">
        <ele>107.53</ele>
        <time>2023-06-10T07:44:58Z</time>
      </trkpt>
      <trkpt lat="48.89332" lon="2.03085">
        <ele>107.13</ele>
        <time>2023-06-10T07:44:59Z</time>
      </trkpt>
      <trkpt lat="48.89332" lon="2.03083">
        <ele>107.1</ele>
        <time>2023-06-10T07:45:00Z</time>
      </trkpt>
      <trkpt lat="48.89333" lon="2.0308">
        <ele>107.8</ele>
        <time>2023-06-10T07:45:01Z</time>
      </trkpt>
      <trkpt lat="48.89332" lon="2.03078">
        <ele>107.65</ele>
        <time>2023-06-10T07:45:02Z</time>
      </trkpt>
      <trkpt lat="48.89332" lon="2.03075">
        <ele>107.62</ele>
        <time>2023-06-10T07:45:03Z</time>
      </trkpt>
      <trkpt lat="48.89332" lon="2.03071">
        <ele>107.42</ele>
        <time>2023-06-10T07:45:04Z</time>
      </trkpt>
      <trkpt lat="48.89325" lon="2.03048">
        <ele>106.91</ele>
        <time>2023-06-10T07:45:12Z</time>
      </trkpt>
      <trkpt lat="48.89322" lon="2.03034">
        <ele>106.83</ele>
        <time>2023-06-10T07:45:18Z</time>
      </trkpt>
      <trkpt lat="48.89321" lon="2.03031">
        <ele>106.6</ele>
        <time>2023-06-10T07:45:20Z</time>
      </trkpt>
      <trkpt lat="48.89314" lon="2.03016">
        <ele>106.33</ele>
        <time>2023-06-10T07:45:30Z</time>
      </trkpt>
      <trkpt lat="48.89313" lon="2.03014">
        <ele>106.38</ele>
        <time>2023-06-10T07:45:31Z</time>
      </trkpt>
      <trkpt lat="48.89312" lon="2.03012">
        <ele>106.48</ele>
        <time>2023-06-10T07:45:32Z</time>
      </trkpt>
      <trkpt lat="48.89307" lon="2.03">
        <ele>105.91</ele>
        <time>2023-06-10T07:45:39Z</time>
      </trkpt>
      <trkpt lat="48.89307" lon="2.02999">
        <ele>105.91</ele>
        <time>2023-06-10T07:45:40Z</time>
      </trkpt>
      <trkpt lat="48.89306" lon="2.02995">
        <ele>105.78</ele>
        <time>2023-06-10T07:45:42Z</time>
      </trkpt>
      <trkpt lat="48.89303" lon="2.0298">
        <ele>106.05</ele>
        <time>2023-06-10T07:45:51Z</time>
      </trkpt>
      <trkpt lat="48.89301" lon="2.02975">
        <ele>105.41</ele>
        <time>2023-06-10T07:45:53Z</time>
      </trkpt>
      <trkpt lat="48.893" lon="2.02968">
        <ele>105.79</ele>
        <time>2023-06-10T07:45:56Z</time>
      </trkpt>
      <trkpt lat="48.893" lon="2.02962">
        <ele>105.46</ele>
        <time>2023-06-10T07:45:58Z</time>
      </trkpt>
      <trkpt lat="48.893" lon="2.0296">
        <ele>105.97</ele>
        <time>2023-06-10T07:45:59Z</time>
      </trkpt>
      <trkpt lat="48.89297" lon="2.0294">
        <ele>105.11</ele>
        <time>2023-06-10T07:46:08Z</time>
      </trkpt>
      <trkpt lat="48.89297" lon="2.02935">
        <ele>104.93</ele>
        <time>2023-06-10T07:46:10Z</time>
      </trkpt>
      <trkpt lat="48.89292" lon="2.02918">
        <ele>104.88</ele>
        <time>2023-06-10T07:46:19Z</time>
      </trkpt>
      <trkpt lat="48.89291" lon="2.02911">
        <ele>104.34</ele>
        <time>2023-06-10T07:46:22Z</time>
      </trkpt>
      <trkpt lat="48.89289" lon="2.02891">
        <ele>104.44</ele>
        <time>2023-06-10T07:46:32Z</time>
      </trkpt>
      <trkpt lat="48.89289" lon="2.02887">
        <ele>103.79</ele>
        <time>2023-06-10T07:46:34Z</time>
      </trkpt>
      <trkpt lat="48.89289" lon="2.02883">
        <ele>103.9</ele>
        <time>2023-06-10T07:46:36Z</time>
      </trkpt>
      <trkpt lat="48.89283" lon="2.02864">
        <ele>103.39</ele>
        <time>2023-06-10T07:46:45Z</time>
      </trkpt>
      <trkpt lat="48.89282" lon="2.02859">
        <ele>103.33</ele>
        <time>2023-06-10T07:46:48Z</time>
      </trkpt>
      <trkpt lat="48.89281" lon="2.02856">
        <ele>103.58</ele>
        <time>2023-06-10T07:46:49Z</time>
      </trkpt>
      <trkpt lat="48.8928" lon="2.02849">
        <ele>102.5</ele>
        <time>2023-06-10T07:46:53Z</time>
      </trkpt>
      <trkpt lat="48.89277" lon="2.02825">
        <ele>102.38</ele>
        <time>2023-06-10T07:47:03Z</time>
      </trkpt>
      <trkpt lat="48.89272" lon="2.02809">
        <ele>101.96</ele>
        <time>2023-06-10T07:47:12Z</time>
      </trkpt>
      <trkpt lat="48.8927" lon="2.02804">
        <ele>102.61</ele>
        <time>2023-06-10T07:47:16Z</time>
      </trkpt>
      <trkpt lat="48.8927" lon="2.02803">
        <ele>102.5</ele>
        <time>2023-06-10T07:47:17Z</time>
      </trkpt>
      <trkpt lat="48.89265" lon="2.02803">
        <ele>100.75</ele>
        <time>2023-06-10T07:47:37Z</time>
      </trkpt>
      <trkpt lat="48.89264" lon="2.02804">
        <ele>99.38</ele>
        <time>2023-06-10T07:47:54Z</time>
      </trkpt>
      <trkpt lat="48.89262" lon="2.02804">
        <ele>97.26</ele>
        <time>2023-06-10T07:48:12Z</time>
      </trkpt>
      <trkpt lat="48.89261" lon="2.02801">
        <ele>95.94</ele>
        <time>2023-06-10T07:48:31Z</time>
      </trkpt>
      <trkpt lat="48.89261" lon="2.02801">
        <ele>94.41</ele>
        <time>2023-06-10T07:48:51Z</time>
      </trkpt>
      <trkpt lat="48.8926" lon="2.02805">
        <ele>93.34</ele>
        <time>2023-06-10T07:49:10Z</time>
      </trkpt>
      <trkpt lat="48.89259" lon="2.02805">
        <ele>91.83</ele>
        <time>2023-06-10T07:49:28Z</time>
      </trkpt>
      <trkpt lat="48.89259" lon="2.02806">
        <ele>90.9</ele>
        <time>2023-06-10T07:49:48Z</time>
      </trkpt>
      <trkpt lat="48.89259" lon="2.02809">
        <ele>90.01</ele>
        <time>2023-06-10T07:50:08Z</time>
      </trkpt>
      <trkpt lat="48.8926" lon="2.02811">
        <ele>88.59</ele>
        <time>2023-06-10T07:50:28Z</time>
      </trkpt>
      <trkpt lat="48.89252" lon="2.02818">
        <ele>87.89</ele>
        <time>2023-06-10T07:50:49Z</time>
      </trkpt>
      <trkpt lat="48.89253" lon="2.02817">
        <ele>87.5</ele>
        <time>2023-06-10T07:51:06Z</time>
      </trkpt>
      <trkpt lat="48.89263" lon="2.02816">
        <ele>87.47</ele>
        <time>2023-06-10T07:51:20Z</time>
      </trkpt>
      <trkpt lat="48.89266" lon="2.02816">
        <ele>87.55</ele>
        <time>2023-06-10T07:51:21Z</time>
      </trkpt>
      <trkpt lat="48.89267" lon="2.02816">
        <ele>87.81</ele>
        <time>2023-06-10T07:51:22Z</time>
      </trkpt>
      <trkpt lat="48.89277" lon="2.02814">
        <ele>87.79</ele>
        <time>2023-06-10T07:51:32Z</time>
      </trkpt>
      <trkpt lat="48.89286" lon="2.02811">
        <ele>87.85</ele>
        <time>2023-06-10T07:51:41Z</time>
      </trkpt>
      <trkpt lat="48.893" lon="2.028">
        <ele>87.92</ele>
        <time>2023-06-10T07:51:51Z</time>
      </trkpt>
      <trkpt lat="48.89302" lon="2.02797">
        <ele>88.09</ele>
        <time>2023-06-10T07:51:52Z</time>
      </trkpt>
      <trkpt lat="48.89302" lon="2.02794">
        <ele>87.88</ele>
        <time>2023-06-10T07:51:53Z</time>
      </trkpt>
      <trkpt lat="48.89308" lon="2.02761">
        <ele>88.53</ele>
        <time>2023-06-10T07:52:06Z</time>
      </trkpt>
      <trkpt lat="48.89303" lon="2.02719">
        <ele>88.53</ele>
        <time>2023-06-10T07:52:24Z</time>
      </trkpt>
      <trkpt lat="48.89299" lon="2.02703">
        <ele>88.24</ele>
        <time>2023-06-10T07:52:32Z</time>
      </trkpt>
      <trkpt lat="48.89299" lon="2.02701">
        <ele>88.13</ele>
        <time>2023-06-10T07:52:33Z</time>
      </trkpt>
      <trkpt lat="48.89293" lon="2.0267">
        <ele>88.82</ele>
        <time>2023-06-10T07:52:51Z</time>
      </trkpt>
      <trkpt lat="48.89286" lon="2.0264">
        <ele>89.57</ele>
        <time>2023-06-10T07:53:05Z</time>
      </trkpt>
      <trkpt lat="48.89279" lon="2.02607">
        <ele>89.76</ele>
        <time>2023-06-10T07:53:21Z</time>
      </trkpt>
      <trkpt lat="48.89273" lon="2.02591">
        <ele>90.2</ele>
        <time>2023-06-10T07:53:28Z</time>
      </trkpt>
      <trkpt lat="48.89264" lon="2.02561">
        <ele>90.55</ele>
        <time>2023-06-10T07:53:45Z</time>
      </trkpt>
      <trkpt lat="48.89263" lon="2.0256">
        <ele>90.57</ele>
        <time>2023-06-10T07:53:46Z</time>
      </trkpt>
      <trkpt lat="48.89264" lon="2.02559">
        <ele>90.5</ele>
        <time>2023-06-10T07:53:47Z</time>
      </trkpt>
      <trkpt lat="48.89265" lon="2.02558">
        <ele>90.6</ele>
        <time>2023-06-10T07:53:48Z</time>
      </trkpt>
      <trkpt lat="48.89265" lon="2.02557">
        <ele>90.69</ele>
        <time>2023-06-10T07:53:49Z</time>
      </trkpt>
      <trkpt lat="48.89273" lon="2.02554">
        <ele>92.62</ele>
        <time>2023-06-10T07:54:03Z</time>
      </trkpt>
      <trkpt lat="48.89282" lon="2.0255">
        <ele>94.58</ele>
        <time>2023-06-10T07:54:13Z</time>
      </trkpt>
      <trkpt lat="48.89285" lon="2.02548">
        <ele>95.68</ele>
        <time>2023-06-10T07:54:22Z</time>
      </trkpt>
      <trkpt lat="48.89296" lon="2.0255">
        <ele>97.6</ele>
        <time>2023-06-10T07:54:39Z</time>
      </trkpt>
      <trkpt lat="48.89316" lon="2.02547">
        <ele>99.41</ele>
        <time>2023-06-10T07:54:53Z</time>
      </trkpt>
      <trkpt lat="48.89319" lon="2.02548">
        <ele>99.65</ele>
        <time>2023-06-10T07:54:56Z</time>
      </trkpt>
      <trkpt lat="48.89335" lon="2.02544">
        <ele>100.85</ele>
        <time>2023-06-10T07:55:08Z</time>
      </trkpt>
      <trkpt lat="48.89339" lon="2.02542">
        <ele>101</ele>
        <time>2023-06-10T07:55:11Z</time>
      </trkpt>
      <trkpt lat="48.89359" lon="2.02538">
        <ele>102.16</ele>
        <time>2023-06-10T07:55:23Z</time>
      </trkpt>
      <trkpt lat="48.8937" lon="2.02532">
        <ele>102.71</ele>
        <time>2023-06-10T07:55:28Z</time>
      </trkpt>
      <trkpt lat="48.89388" lon="2.0253">
        <ele>104.88</ele>
        <time>2023-06-10T07:55:39Z</time>
      </trkpt>
      <trkpt lat="48.89393" lon="2.02529">
        <ele>105.06</ele>
        <time>2023-06-10T07:55:43Z</time>
      </trkpt>
      <trkpt lat="48.89401" lon="2.02516">
        <ele>104.62</ele>
        <time>2023-06-10T07:55:49Z</time>
      </trkpt>
      <trkpt lat="48.89407" lon="2.02506">
        <ele>105.28</ele>
        <time>2023-06-10T07:55:55Z</time>
      </trkpt>
      <trkpt lat="48.89414" lon="2.02496">
        <ele>104.97</ele>
        <time>2023-06-10T07:56:13Z</time>
      </trkpt>
      <trkpt lat="48.89415" lon="2.02496">
        <ele>104.65</ele>
        <time>2023-06-10T07:56:30Z</time>
      </trkpt>
      <trkpt lat="48.89419" lon="2.02486">
        <ele>105.23</ele>
        <time>2023-06-10T07:56:49Z</time>
      </trkpt>
      <trkpt lat="48.8942" lon="2.02465">
        <ele>106.1</ele>
        <time>2023-06-10T07:57:03Z</time>
      </trkpt>
      <trkpt lat="48.89421" lon="2.02435">
        <ele>106.73</ele>
        <time>2023-06-10T07:57:19Z</time>
      </trkpt>
      <trkpt lat="48.89416" lon="2.02408">
        <ele>107.78</ele>
        <time>2023-06-10T07:57:34Z</time>
      </trkpt>
      <trkpt lat="48.89409" lon="2.02374">
        <ele>109.2</ele>
        <time>2023-06-10T07:57:51Z</time>
      </trkpt>
      <trkpt lat="48.89405" lon="2.02345">
        <ele>110.29</ele>
        <time>2023-06-10T07:58:06Z</time>
      </trkpt>
      <trkpt lat="48.89412" lon="2.02318">
        <ele>111.1</ele>
        <time>2023-06-10T07:58:20Z</time>
      </trkpt>
      <trkpt lat="48.89421" lon="2.02309">
        <ele>111.51</ele>
        <time>2023-06-10T07:58:27Z</time>
      </trkpt>
      <trkpt lat="48.8943" lon="2.02276">
        <ele>113.02</ele>
        <time>2023-06-10T07:58:45Z</time>
      </trkpt>
      <trkpt lat="48.89426" lon="2.02255">
        <ele>116.28</ele>
        <time>2023-06-10T07:58:57Z</time>
      </trkpt>
      <trkpt lat="48.89424" lon="2.02242">
        <ele>117.93</ele>
        <time>2023-06-10T07:59:04Z</time>
      </trkpt>
      <trkpt lat="48.89422" lon="2.02231">
        <ele>119.73</ele>
        <time>2023-06-10T07:59:12Z</time>
      </trkpt>
      <trkpt lat="48.89424" lon="2.02211">
        <ele>121.59</ele>
        <time>2023-06-10T07:59:25Z</time>
      </trkpt>
      <trkpt lat="48.89421" lon="2.02202">
        <ele>122.08</ele>
        <time>2023-06-10T07:59:30Z</time>
      </trkpt>
      <trkpt lat="48.89416" lon="2.02182">
        <ele>123.62</ele>
        <time>2023-06-10T07:59:38Z</time>
      </trkpt>
      <trkpt lat="48.89406" lon="2.02162">
        <ele>126</ele>
        <time>2023-06-10T07:59:52Z</time>
      </trkpt>
      <trkpt lat="48.89405" lon="2.02159">
        <ele>125.96</ele>
        <time>2023-06-10T07:59:55Z</time>
      </trkpt>
      <trkpt lat="48.89403" lon="2.02125">
        <ele>126.93</ele>
        <time>2023-06-10T08:00:12Z</time>
      </trkpt>
      <trkpt lat="48.89406" lon="2.021">
        <ele>127.76</ele>
        <time>2023-06-10T08:00:28Z</time>
      </trkpt>
      <trkpt lat="48.89406" lon="2.02079">
        <ele>127.59</ele>
        <time>2023-06-10T08:00:46Z</time>
      </trkpt>
      <trkpt lat="48.89406" lon="2.02062">
        <ele>127.97</ele>
        <time>2023-06-10T08:01:02Z</time>
      </trkpt>
      <trkpt lat="48.89403" lon="2.02032">
        <ele>127.97</ele>
        <time>2023-06-10T08:01:19Z</time>
      </trkpt>
      <trkpt lat="48.89403" lon="2.02019">
        <ele>127.8</ele>
        <time>2023-06-10T08:01:38Z</time>
      </trkpt>
      <trkpt lat="48.89403" lon="2.02005">
        <ele>128.02</ele>
        <time>2023-06-10T08:02:00Z</time>
      </trkpt>
      <trkpt lat="48.89399" lon="2.01996">
        <ele>128.13</ele>
        <time>2023-06-10T08:02:19Z</time>
      </trkpt>
      <trkpt lat="48.89398" lon="2.01998">
        <ele>128.15</ele>
        <time>2023-06-10T08:02:35Z</time>
      </trkpt>
      <trkpt lat="48.89398" lon="2.02001">
        <ele>128.05</ele>
        <time>2023-06-10T08:02:55Z</time>
      </trkpt>
      <trkpt lat="48.89399" lon="2.01998">
        <ele>128.69</ele>
        <time>2023-06-10T08:03:21Z</time>
      </trkpt>
      <trkpt lat="48.894" lon="2.01999">
        <ele>128.28</ele>
        <time>2023-06-10T08:03:44Z</time>
      </trkpt>
      <trkpt lat="48.89406" lon="2.01999">
        <ele>128.35</ele>
        <time>2023-06-10T08:04:09Z</time>
      </trkpt>
      <trkpt lat="48.89405" lon="2.02">
        <ele>128.57</ele>
        <time>2023-06-10T08:04:31Z</time>
      </trkpt>
      <trkpt lat="48.894" lon="2.02">
        <ele>128.41</ele>
        <time>2023-06-10T08:04:54Z</time>
      </trkpt>
      <trkpt lat="48.89401" lon="2.01996">
        <ele>128.79</ele>
        <time>2023-06-10T08:05:18Z</time>
      </trkpt>
      <trkpt lat="48.89411" lon="2.0198">
        <ele>129.67</ele>
        <time>2023-06-10T08:05:33Z</time>
      </trkpt>
      <trkpt lat="48.89423" lon="2.01966">
        <ele>130.99</ele>
        <time>2023-06-10T08:05:50Z</time>
      </trkpt>
      <trkpt lat="48.89436" lon="2.01949">
        <ele>133.1</ele>
        <time>2023-06-10T08:06:05Z</time>
      </trkpt>
      <trkpt lat="48.8945" lon="2.01929">
        <ele>134.37</ele>
        <time>2023-06-10T08:06:22Z</time>
      </trkpt>
      <trkpt lat="48.89471" lon="2.01904">
        <ele>135.45</ele>
        <time>2023-06-10T08:06:40Z</time>
      </trkpt>
      <trkpt lat="48.89487" lon="2.01886">
        <ele>136.36</ele>
        <time>2023-06-10T08:06:57Z</time>
      </trkpt>
      <trkpt lat="48.89504" lon="2.01871">
        <ele>136.28</ele>
        <time>2023-06-10T08:07:12Z</time>
      </trkpt>
      <trkpt lat="48.89522" lon="2.01848">
        <ele>137.59</ele>
        <time>2023-06-10T08:07:27Z</time>
      </trkpt>
      <trkpt lat="48.89542" lon="2.01826">
        <ele>137.49</ele>
        <time>2023-06-10T08:07:41Z</time>
      </trkpt>
      <trkpt lat="48.89561" lon="2.01807">
        <ele>137.81</ele>
        <time>2023-06-10T08:07:53Z</time>
      </trkpt>
      <trkpt lat="48.89572" lon="2.01803">
        <ele>137.38</ele>
        <time>2023-06-10T08:08:01Z</time>
      </trkpt>
      <trkpt lat="48.89585" lon="2.018">
        <ele>137.69</ele>
        <time>2023-06-10T08:08:14Z</time>
      </trkpt>
      <trkpt lat="48.89606" lon="2.01801">
        <ele>137.3</ele>
        <time>2023-06-10T08:08:33Z</time>
      </trkpt>
      <trkpt lat="48.89628" lon="2.01802">
        <ele>136.96</ele>
        <time>2023-06-10T08:08:49Z</time>
      </trkpt>
      <trkpt lat="48.89656" lon="2.01803">
        <ele>137.11</ele>
        <time>2023-06-10T08:09:06Z</time>
      </trkpt>
      <trkpt lat="48.89677" lon="2.018">
        <ele>136.57</ele>
        <time>2023-06-10T08:09:21Z</time>
      </trkpt>
      <trkpt lat="48.89703" lon="2.01795">
        <ele>136.54</ele>
        <time>2023-06-10T08:09:38Z</time>
      </trkpt>
      <trkpt lat="48.89733" lon="2.01787">
        <ele>135.67</ele>
        <time>2023-06-10T08:09:58Z</time>
      </trkpt>
      <trkpt lat="48.8976" lon="2.01779">
        <ele>135.5</ele>
        <time>2023-06-10T08:10:15Z</time>
      </trkpt>
      <trkpt lat="48.89781" lon="2.01776">
        <ele>135.44</ele>
        <time>2023-06-10T08:10:30Z</time>
      </trkpt>
      <trkpt lat="48.89804" lon="2.0176">
        <ele>134.78</ele>
        <time>2023-06-10T08:10:44Z</time>
      </trkpt>
      <trkpt lat="48.89822" lon="2.01764">
        <ele>134.1</ele>
        <time>2023-06-10T08:11:00Z</time>
      </trkpt>
      <trkpt lat="48.89835" lon="2.01761">
        <ele>133.77</ele>
        <time>2023-06-10T08:11:08Z</time>
      </trkpt>
      <trkpt lat="48.89852" lon="2.01763">
        <ele>132.61</ele>
        <time>2023-06-10T08:11:21Z</time>
      </trkpt>
      <trkpt lat="48.89864" lon="2.01766">
        <ele>131.79</ele>
        <time>2023-06-10T08:11:31Z</time>
      </trkpt>
      <trkpt lat="48.89884" lon="2.01767">
        <ele>130.79</ele>
        <time>2023-06-10T08:11:45Z</time>
      </trkpt>
      <trkpt lat="48.89907" lon="2.01772">
        <ele>129.93</ele>
        <time>2023-06-10T08:12:00Z</time>
      </trkpt>
      <trkpt lat="48.89925" lon="2.01774">
        <ele>129.21</ele>
        <time>2023-06-10T08:12:11Z</time>
      </trkpt>
      <trkpt lat="48.89944" lon="2.01769">
        <ele>128.99</ele>
        <time>2023-06-10T08:12:23Z</time>
      </trkpt>
      <trkpt lat="48.89964" lon="2.01763">
        <ele>127.65</ele>
        <time>2023-06-10T08:12:35Z</time>
      </trkpt>
      <trkpt lat="48.89983" lon="2.01757">
        <ele>126.12</ele>
        <time>2023-06-10T08:12:49Z</time>
      </trkpt>
      <trkpt lat="48.90004" lon="2.01757">
        <ele>125.32</ele>
        <time>2023-06-10T08:13:06Z</time>
      </trkpt>
      <trkpt lat="48.90037" lon="2.01754">
        <ele>124.24</ele>
        <time>2023-06-10T08:13:25Z</time>
      </trkpt>
      <trkpt lat="48.90043" lon="2.01752">
        <ele>124.75</ele>
        <time>2023-06-10T08:13:28Z</time>
      </trkpt>
      <trkpt lat="48.90061" lon="2.01741">
        <ele>124.52</ele>
        <time>2023-06-10T08:13:40Z</time>
      </trkpt>
      <trkpt lat="48.90062" lon="2.0174">
        <ele>125.46</ele>
        <time>2023-06-10T08:13:41Z</time>
      </trkpt>
      <trkpt lat="48.90076" lon="2.01718">
        <ele>124.94</ele>
        <time>2023-06-10T08:13:56Z</time>
      </trkpt>
      <trkpt lat="48.90076" lon="2.01708">
        <ele>125.16</ele>
        <time>2023-06-10T08:14:11Z</time>
      </trkpt>
      <trkpt lat="48.90083" lon="2.01678">
        <ele>125.46</ele>
        <time>2023-06-10T08:14:28Z</time>
      </trkpt>
      <trkpt lat="48.90093" lon="2.01637">
        <ele>126.1</ele>
        <time>2023-06-10T08:14:48Z</time>
      </trkpt>
      <trkpt lat="48.90099" lon="2.01585">
        <ele>125.3</ele>
        <time>2023-06-10T08:15:06Z</time>
      </trkpt>
      <trkpt lat="48.90104" lon="2.01572">
        <ele>125.26</ele>
        <time>2023-06-10T08:15:12Z</time>
      </trkpt>
      <trkpt lat="48.90105" lon="2.01571">
        <ele>124.79</ele>
        <time>2023-06-10T08:15:13Z</time>
      </trkpt>
      <trkpt lat="48.90125" lon="2.0154">
        <ele>125.39</ele>
        <time>2023-06-10T08:15:32Z</time>
      </trkpt>
      <trkpt lat="48.90144" lon="2.01521">
        <ele>125.33</ele>
        <time>2023-06-10T08:15:47Z</time>
      </trkpt>
      <trkpt lat="48.90159" lon="2.01508">
        <ele>125.27</ele>
        <time>2023-06-10T08:16:01Z</time>
      </trkpt>
      <trkpt lat="48.90164" lon="2.01503">
        <ele>125.08</ele>
        <time>2023-06-10T08:16:06Z</time>
      </trkpt>
      <trkpt lat="48.90173" lon="2.01496">
        <ele>124.51</ele>
        <time>2023-06-10T08:16:12Z</time>
      </trkpt>
      <trkpt lat="48.90186" lon="2.01483">
        <ele>124.44</ele>
        <time>2023-06-10T08:16:22Z</time>
      </trkpt>
      <trkpt lat="48.90206" lon="2.01462">
        <ele>124.32</ele>
        <time>2023-06-10T08:16:38Z</time>
      </trkpt>
      <trkpt lat="48.90221" lon="2.01466">
        <ele>122.95</ele>
        <time>2023-06-10T08:16:52Z</time>
      </trkpt>
      <trkpt lat="48.90225" lon="2.01464">
        <ele>123.13</ele>
        <time>2023-06-10T08:16:55Z</time>
      </trkpt>
      <trkpt lat="48.90244" lon="2.0145">
        <ele>122.8</ele>
        <time>2023-06-10T08:17:08Z</time>
      </trkpt>
      <trkpt lat="48.90264" lon="2.01431">
        <ele>123.28</ele>
        <time>2023-06-10T08:17:23Z</time>
      </trkpt>
      <trkpt lat="48.90282" lon="2.01415">
        <ele>123.23</ele>
        <time>2023-06-10T08:17:36Z</time>
      </trkpt>
      <trkpt lat="48.90296" lon="2.01405">
        <ele>123.19</ele>
        <time>2023-06-10T08:17:50Z</time>
      </trkpt>
      <trkpt lat="48.90317" lon="2.01394">
        <ele>122.69</ele>
        <time>2023-06-10T08:18:08Z</time>
      </trkpt>
      <trkpt lat="48.90333" lon="2.0138">
        <ele>122.23</ele>
        <time>2023-06-10T08:18:25Z</time>
      </trkpt>
      <trkpt lat="48.90352" lon="2.01367">
        <ele>120.95</ele>
        <time>2023-06-10T08:18:41Z</time>
      </trkpt>
      <trkpt lat="48.90368" lon="2.01362">
        <ele>119.87</ele>
        <time>2023-06-10T08:18:53Z</time>
      </trkpt>
      <trkpt lat="48.90377" lon="2.01354">
        <ele>118.62</ele>
        <time>2023-06-10T08:19:01Z</time>
      </trkpt>
      <trkpt lat="48.90396" lon="2.01329">
        <ele>118.95</ele>
        <time>2023-06-10T08:19:15Z</time>
      </trkpt>
      <trkpt lat="48.904" lon="2.01313">
        <ele>119.69</ele>
        <time>2023-06-10T08:19:26Z</time>
      </trkpt>
      <trkpt lat="48.90399" lon="2.01309">
        <ele>121.09</ele>
        <time>2023-06-10T08:19:29Z</time>
      </trkpt>
      <trkpt lat="48.9039" lon="2.01274">
        <ele>121.92</ele>
        <time>2023-06-10T08:19:45Z</time>
      </trkpt>
      <trkpt lat="48.90381" lon="2.01253">
        <ele>122.73</ele>
        <time>2023-06-10T08:20:00Z</time>
      </trkpt>
      <trkpt lat="48.90378" lon="2.0124">
        <ele>122.81</ele>
        <time>2023-06-10T08:20:11Z</time>
      </trkpt>
      <trkpt lat="48.90375" lon="2.01236">
        <ele>123.32</ele>
        <time>2023-06-10T08:20:26Z</time>
      </trkpt>
      <trkpt lat="48.90372" lon="2.01233">
        <ele>123.5</ele>
        <time>2023-06-10T08:20:42Z</time>
      </trkpt>
      <trkpt lat="48.90371" lon="2.01229">
        <ele>123.67</ele>
        <time>2023-06-10T08:20:44Z</time>
      </trkpt>
      <trkpt lat="48.9037" lon="2.01228">
        <ele>123.56</ele>
        <time>2023-06-10T08:20:54Z</time>
      </trkpt>
      <trkpt lat="48.90372" lon="2.01229">
        <ele>123.11</ele>
        <time>2023-06-10T08:20:59Z</time>
      </trkpt>
      <trkpt lat="48.90373" lon="2.01229">
        <ele>122.86</ele>
        <time>2023-06-10T08:21:00Z</time>
      </trkpt>
      <trkpt lat="48.90372" lon="2.01227">
        <ele>123.8</ele>
        <time>2023-06-10T08:21:19Z</time>
      </trkpt>
      <trkpt lat="48.90369" lon="2.01235">
        <ele>123.82</ele>
        <time>2023-06-10T08:21:39Z</time>
      </trkpt>
      <trkpt lat="48.90372" lon="2.01236">
        <ele>123.31</ele>
        <time>2023-06-10T08:21:59Z</time>
      </trkpt>
      <trkpt lat="48.90375" lon="2.0123">
        <ele>123.72</ele>
        <time>2023-06-10T08:22:22Z</time>
      </trkpt>
      <trkpt lat="48.90372" lon="2.01228">
        <ele>123.9</ele>
        <time>2023-06-10T08:22:44Z</time>
      </trkpt>
      <trkpt lat="48.9037" lon="2.01231">
        <ele>123.89</ele>
        <time>2023-06-10T08:23:06Z</time>
      </trkpt>
      <trkpt lat="48.90368" lon="2.01233">
        <ele>123.8</ele>
        <time>2023-06-10T08:23:27Z</time>
      </trkpt>
      <trkpt lat="48.90368" lon="2.01231">
        <ele>123.54</ele>
        <time>2023-06-10T08:23:28Z</time>
      </trkpt>
      <trkpt lat="48.90367" lon="2.01228">
        <ele>124.57</ele>
        <time>2023-06-10T08:23:30Z</time>
      </trkpt>
      <trkpt lat="48.90371" lon="2.01225">
        <ele>124.4</ele>
        <time>2023-06-10T08:23:51Z</time>
      </trkpt>
      <trkpt lat="48.90371" lon="2.01228">
        <ele>123.92</ele>
        <time>2023-06-10T08:24:10Z</time>
      </trkpt>
      <trkpt lat="48.90371" lon="2.01228">
        <ele>124.56</ele>
        <time>2023-06-10T08:24:30Z</time>
      </trkpt>
      <trkpt lat="48.90372" lon="2.01226">
        <ele>124.61</ele>
        <time>2023-06-10T08:24:47Z</time>
      </trkpt>
      <trkpt lat="48.9037" lon="2.01225">
        <ele>124.76</ele>
        <time>2023-06-10T08:25:09Z</time>
      </trkpt>
      <trkpt lat="48.90368" lon="2.01227">
        <ele>125.02</ele>
        <time>2023-06-10T08:25:31Z</time>
      </trkpt>
      <trkpt lat="48.90368" lon="2.01225">
        <ele>125.13</ele>
        <time>2023-06-10T08:25:40Z</time>
      </trkpt>
      <trkpt lat="48.90371" lon="2.01222">
        <ele>125.22</ele>
        <time>2023-06-10T08:26:01Z</time>
      </trkpt>
      <trkpt lat="48.90369" lon="2.01222">
        <ele>125.64</ele>
        <time>2023-06-10T08:26:23Z</time>
      </trkpt>
      <trkpt lat="48.90369" lon="2.01224">
        <ele>125.32</ele>
        <time>2023-06-10T08:26:41Z</time>
      </trkpt>
      <trkpt lat="48.90369" lon="2.01229">
        <ele>125.59</ele>
        <time>2023-06-10T08:27:01Z</time>
      </trkpt>
      <trkpt lat="48.90366" lon="2.01228">
        <ele>126.05</ele>
        <time>2023-06-10T08:27:20Z</time>
      </trkpt>
      <trkpt lat="48.90367" lon="2.01227">
        <ele>126</ele>
        <time>2023-06-10T08:27:38Z</time>
      </trkpt>
      <trkpt lat="48.90367" lon="2.0123">
        <ele>126.35</ele>
        <time>2023-06-10T08:27:58Z</time>
      </trkpt>
      <trkpt lat="48.90364" lon="2.0123">
        <ele>127.32</ele>
        <time>2023-06-10T08:28:20Z</time>
      </trkpt>
      <trkpt lat="48.90362" lon="2.01234">
        <ele>127.23</ele>
        <time>2023-06-10T08:28:39Z</time>
      </trkpt>
      <trkpt lat="48.90364" lon="2.01231">
        <ele>127.56</ele>
        <time>2023-06-10T08:28:55Z</time>
      </trkpt>
      <trkpt lat="48.90366" lon="2.01234">
        <ele>127.79</ele>
        <time>2023-06-10T08:29:14Z</time>
      </trkpt>
      <trkpt lat="48.90364" lon="2.01235">
        <ele>128.02</ele>
        <time>2023-06-10T08:29:32Z</time>
      </trkpt>
      <trkpt lat="48.9037" lon="2.0124">
        <ele>127.82</ele>
        <time>2023-06-10T08:29:48Z</time>
      </trkpt>
      <trkpt lat="48.90371" lon="2.01224">
        <ele>128.58</ele>
        <time>2023-06-10T08:30:03Z</time>
      </trkpt>
      <trkpt lat="48.90372" lon="2.01229">
        <ele>128.44</ele>
        <time>2023-06-10T08:30:17Z</time>
      </trkpt>
      <trkpt lat="48.9037" lon="2.01231">
        <ele>128.28</ele>
        <time>2023-06-10T08:30:39Z</time>
      </trkpt>
      <trkpt lat="48.90372" lon="2.01235">
        <ele>128.83</ele>
        <time>2023-06-10T08:31:04Z</time>
      </trkpt>
      <trkpt lat="48.90368" lon="2.01234">
        <ele>129.14</ele>
        <time>2023-06-10T08:31:23Z</time>
      </trkpt>
      <trkpt lat="48.90369" lon="2.01225">
        <ele>129.23</ele>
        <time>2023-06-10T08:31:48Z</time>
      </trkpt>
      <trkpt lat="48.90367" lon="2.0123">
        <ele>129.1</ele>
        <time>2023-06-10T08:32:13Z</time>
      </trkpt>
      <trkpt lat="48.90368" lon="2.01232">
        <ele>128.84</ele>
        <time>2023-06-10T08:32:15Z</time>
      </trkpt>
      <trkpt lat="48.90367" lon="2.01224">
        <ele>129.84</ele>
        <time>2023-06-10T08:32:37Z</time>
      </trkpt>
      <trkpt lat="48.90368" lon="2.01222">
        <ele>130.5</ele>
        <time>2023-06-10T08:32:39Z</time>
      </trkpt>
      <trkpt lat="48.90369" lon="2.01215">
        <ele>129.9</ele>
        <time>2023-06-10T08:32:53Z</time>
      </trkpt>
      <trkpt lat="48.90372" lon="2.01223">
        <ele>129.64</ele>
        <time>2023-06-10T08:33:09Z</time>
      </trkpt>
      <trkpt lat="48.90375" lon="2.01226">
        <ele>129.69</ele>
        <time>2023-06-10T08:33:26Z</time>
      </trkpt>
      <trkpt lat="48.90378" lon="2.0122">
        <ele>129.94</ele>
        <time>2023-06-10T08:33:43Z</time>
      </trkpt>
      <trkpt lat="48.90376" lon="2.01231">
        <ele>130.13</ele>
        <time>2023-06-10T08:34:02Z</time>
      </trkpt>
      <trkpt lat="48.90375" lon="2.01228">
        <ele>130.44</ele>
        <time>2023-06-10T08:34:13Z</time>
      </trkpt>
      <trkpt lat="48.90372" lon="2.01212">
        <ele>131.2</ele>
        <time>2023-06-10T08:34:28Z</time>
      </trkpt>
      <trkpt lat="48.90373" lon="2.0122">
        <ele>131.05</ele>
        <time>2023-06-10T08:34:43Z</time>
      </trkpt>
      <trkpt lat="48.90372" lon="2.01222">
        <ele>130.98</ele>
        <time>2023-06-10T08:34:49Z</time>
      </trkpt>
      <trkpt lat="48.90369" lon="2.01221">
        <ele>131.47</ele>
        <time>2023-06-10T08:35:10Z</time>
      </trkpt>
      <trkpt lat="48.90372" lon="2.01235">
        <ele>131.03</ele>
        <time>2023-06-10T08:35:28Z</time>
      </trkpt>
      <trkpt lat="48.90371" lon="2.01222">
        <ele>132.26</ele>
        <time>2023-06-10T08:35:41Z</time>
      </trkpt>
      <trkpt lat="48.90373" lon="2.01222">
        <ele>131.48</ele>
        <time>2023-06-10T08:35:56Z</time>
      </trkpt>
      <trkpt lat="48.90372" lon="2.01226">
        <ele>131.98</ele>
        <time>2023-06-10T08:36:18Z</time>
      </trkpt>
      <trkpt lat="48.9037" lon="2.01213">
        <ele>132.13</ele>
        <time>2023-06-10T08:36:29Z</time>
      </trkpt>
      <trkpt lat="48.90369" lon="2.01209">
        <ele>132.31</ele>
        <time>2023-06-10T08:36:31Z</time>
      </trkpt>
      <trkpt lat="48.90369" lon="2.01207">
        <ele>132.79</ele>
        <time>2023-06-10T08:36:32Z</time>
      </trkpt>
      <trkpt lat="48.90362" lon="2.01185">
        <ele>133.41</ele>
        <time>2023-06-10T08:36:47Z</time>
      </trkpt>
      <trkpt lat="48.90357" lon="2.01158">
        <ele>133.86</ele>
        <time>2023-06-10T08:37:01Z</time>
      </trkpt>
      <trkpt lat="48.9035" lon="2.01135">
        <ele>134.54</ele>
        <time>2023-06-10T08:37:15Z</time>
      </trkpt>
      <trkpt lat="48.9034" lon="2.01107">
        <ele>135.13</ele>
        <time>2023-06-10T08:37:30Z</time>
      </trkpt>
      <trkpt lat="48.90338" lon="2.01097">
        <ele>135.52</ele>
        <time>2023-06-10T08:37:35Z</time>
      </trkpt>
      <trkpt lat="48.9033" lon="2.01063">
        <ele>136</ele>
        <time>2023-06-10T08:37:51Z</time>
      </trkpt>
      <trkpt lat="48.90321" lon="2.01034">
        <ele>135.97</ele>
        <time>2023-06-10T08:38:06Z</time>
      </trkpt>
      <trkpt lat="48.9032" lon="2.01032">
        <ele>136.37</ele>
        <time>2023-06-10T08:38:07Z</time>
      </trkpt>
      <trkpt lat="48.9032" lon="2.0103">
        <ele>136.39</ele>
        <time>2023-06-10T08:38:08Z</time>
      </trkpt>
      <trkpt lat="48.90314" lon="2.01005">
        <ele>136.29</ele>
        <time>2023-06-10T08:38:21Z</time>
      </trkpt>
      <trkpt lat="48.90303" lon="2.00973">
        <ele>136.73</ele>
        <time>2023-06-10T08:38:35Z</time>
      </trkpt>
      <trkpt lat="48.90297" lon="2.00952">
        <ele>136.7</ele>
        <time>2023-06-10T08:38:46Z</time>
      </trkpt>
      <trkpt lat="48.90293" lon="2.0093">
        <ele>137.07</ele>
        <time>2023-06-10T08:38:56Z</time>
      </trkpt>
      <trkpt lat="48.90285" lon="2.00897">
        <ele>137.94</ele>
        <time>2023-06-10T08:39:14Z</time>
      </trkpt>
      <trkpt lat="48.90274" lon="2.00859">
        <ele>138.19</ele>
        <time>2023-06-10T08:39:32Z</time>
      </trkpt>
      <trkpt lat="48.90267" lon="2.00835">
        <ele>138.37</ele>
        <time>2023-06-10T08:39:42Z</time>
      </trkpt>
      <trkpt lat="48.90265" lon="2.00826">
        <ele>138.3</ele>
        <time>2023-06-10T08:39:47Z</time>
      </trkpt>
      <trkpt lat="48.90257" lon="2.00802">
        <ele>138.9</ele>
        <time>2023-06-10T08:39:57Z</time>
      </trkpt>
      <trkpt lat="48.90254" lon="2.00791">
        <ele>138.68</ele>
        <time>2023-06-10T08:40:04Z</time>
      </trkpt>
      <trkpt lat="48.90252" lon="2.00779">
        <ele>138.88</ele>
        <time>2023-06-10T08:40:10Z</time>
      </trkpt>
      <trkpt lat="48.90251" lon="2.00776">
        <ele>139.15</ele>
        <time>2023-06-10T08:40:11Z</time>
      </trkpt>
      <trkpt lat="48.90251" lon="2.00774">
        <ele>139.11</ele>
        <time>2023-06-10T08:40:12Z</time>
      </trkpt>
      <trkpt lat="48.90251" lon="2.00772">
        <ele>138.91</ele>
        <time>2023-06-10T08:40:13Z</time>
      </trkpt>
      <trkpt lat="48.90238" lon="2.00735">
        <ele>139.06</ele>
        <time>2023-06-10T08:40:33Z</time>
      </trkpt>
      <trkpt lat="48.90225" lon="2.00715">
        <ele>139.21</ele>
        <time>2023-06-10T08:40:45Z</time>
      </trkpt>
      <trkpt lat="48.90222" lon="2.00711">
        <ele>138.95</ele>
        <time>2023-06-10T08:40:48Z</time>
      </trkpt>
      <trkpt lat="48.90212" lon="2.00698">
        <ele>138.98</ele>
        <time>2023-06-10T08:40:56Z</time>
      </trkpt>
      <trkpt lat="48.90205" lon="2.00697">
        <ele>138.75</ele>
        <time>2023-06-10T08:41:02Z</time>
      </trkpt>
      <trkpt lat="48.90193" lon="2.00685">
        <ele>138.48</ele>
        <time>2023-06-10T08:41:15Z</time>
      </trkpt>
      <trkpt lat="48.90179" lon="2.00702">
        <ele>139.14</ele>
        <time>2023-06-10T08:41:28Z</time>
      </trkpt>
      <trkpt lat="48.90161" lon="2.00728">
        <ele>139.09</ele>
        <time>2023-06-10T08:41:39Z</time>
      </trkpt>
      <trkpt lat="48.90152" lon="2.0075">
        <ele>139.19</ele>
        <time>2023-06-10T08:41:51Z</time>
      </trkpt>
      <trkpt lat="48.90145" lon="2.00771">
        <ele>139.61</ele>
        <time>2023-06-10T08:42:01Z</time>
      </trkpt>
      <trkpt lat="48.90145" lon="2.00773">
        <ele>139.57</ele>
        <time>2023-06-10T08:42:02Z</time>
      </trkpt>
      <trkpt lat="48.90133" lon="2.00799">
        <ele>139.57</ele>
        <time>2023-06-10T08:42:15Z</time>
      </trkpt>
      <trkpt lat="48.90129" lon="2.00813">
        <ele>139.61</ele>
        <time>2023-06-10T08:42:22Z</time>
      </trkpt>
      <trkpt lat="48.90124" lon="2.00836">
        <ele>139.93</ele>
        <time>2023-06-10T08:42:35Z</time>
      </trkpt>
      <trkpt lat="48.9011" lon="2.00859">
        <ele>139.78</ele>
        <time>2023-06-10T08:42:47Z</time>
      </trkpt>
      <trkpt lat="48.90101" lon="2.00878">
        <ele>139.56</ele>
        <time>2023-06-10T08:42:57Z</time>
      </trkpt>
      <trkpt lat="48.90089" lon="2.00901">
        <ele>139.64</ele>
        <time>2023-06-10T08:43:10Z</time>
      </trkpt>
      <trkpt lat="48.90078" lon="2.00923">
        <ele>139.86</ele>
        <time>2023-06-10T08:43:21Z</time>
      </trkpt>
      <trkpt lat="48.9007" lon="2.0094">
        <ele>139.98</ele>
        <time>2023-06-10T08:43:30Z</time>
      </trkpt>
      <trkpt lat="48.90059" lon="2.00959">
        <ele>140.21</ele>
        <time>2023-06-10T08:43:43Z</time>
      </trkpt>
      <trkpt lat="48.90046" lon="2.00981">
        <ele>140.17</ele>
        <time>2023-06-10T08:43:58Z</time>
      </trkpt>
      <trkpt lat="48.90043" lon="2.00985">
        <ele>140.27</ele>
        <time>2023-06-10T08:44:01Z</time>
      </trkpt>
      <trkpt lat="48.90032" lon="2.01001">
        <ele>140.2</ele>
        <time>2023-06-10T08:44:19Z</time>
      </trkpt>
      <trkpt lat="48.90029" lon="2.01012">
        <ele>140.17</ele>
        <time>2023-06-10T08:44:26Z</time>
      </trkpt>
      <trkpt lat="48.90019" lon="2.0103">
        <ele>139.85</ele>
        <time>2023-06-10T08:44:37Z</time>
      </trkpt>
      <trkpt lat="48.90017" lon="2.01038">
        <ele>139.91</ele>
        <time>2023-06-10T08:44:41Z</time>
      </trkpt>
      <trkpt lat="48.9" lon="2.01064">
        <ele>140.05</ele>
        <time>2023-06-10T08:44:56Z</time>
      </trkpt>
      <trkpt lat="48.89991" lon="2.01083">
        <ele>140.14</ele>
        <time>2023-06-10T08:45:06Z</time>
      </trkpt>
      <trkpt lat="48.8998" lon="2.01108">
        <ele>140.38</ele>
        <time>2023-06-10T08:45:16Z</time>
      </trkpt>
      <trkpt lat="48.89969" lon="2.0114">
        <ele>140.21</ele>
        <time>2023-06-10T08:45:29Z</time>
      </trkpt>
      <trkpt lat="48.89962" lon="2.0116">
        <ele>140.24</ele>
        <time>2023-06-10T08:45:38Z</time>
      </trkpt>
      <trkpt lat="48.89953" lon="2.01184">
        <ele>140.05</ele>
        <time>2023-06-10T08:45:48Z</time>
      </trkpt>
      <trkpt lat="48.89944" lon="2.01208">
        <ele>139.2</ele>
        <time>2023-06-10T08:46:01Z</time>
      </trkpt>
      <trkpt lat="48.89933" lon="2.01221">
        <ele>139.51</ele>
        <time>2023-06-10T08:46:10Z</time>
      </trkpt>
      <trkpt lat="48.89923" lon="2.01236">
        <ele>140.11</ele>
        <time>2023-06-10T08:46:19Z</time>
      </trkpt>
      <trkpt lat="48.89917" lon="2.01259">
        <ele>138.9</ele>
        <time>2023-06-10T08:46:31Z</time>
      </trkpt>
      <trkpt lat="48.89916" lon="2.01269">
        <ele>139.67</ele>
        <time>2023-06-10T08:46:39Z</time>
      </trkpt>
      <trkpt lat="48.89913" lon="2.01273">
        <ele>139.2</ele>
        <time>2023-06-10T08:47:00Z</time>
      </trkpt>
      <trkpt lat="48.89912" lon="2.01273">
        <ele>139.48</ele>
        <time>2023-06-10T08:47:18Z</time>
      </trkpt>
      <trkpt lat="48.89913" lon="2.01271">
        <ele>139.71</ele>
        <time>2023-06-10T08:47:37Z</time>
      </trkpt>
      <trkpt lat="48.89912" lon="2.01272">
        <ele>139.88</ele>
        <time>2023-06-10T08:47:38Z</time>
      </trkpt>
      <trkpt lat="48.89912" lon="2.01279">
        <ele>140.05</ele>
        <time>2023-06-10T08:48:04Z</time>
      </trkpt>
      <trkpt lat="48.89913" lon="2.01276">
        <ele>140.42</ele>
        <time>2023-06-10T08:48:16Z</time>
      </trkpt>
      <trkpt lat="48.89916" lon="2.0127">
        <ele>140.51</ele>
        <time>2023-06-10T08:48:37Z</time>
      </trkpt>
      <trkpt lat="48.89915" lon="2.0127">
        <ele>139.95</ele>
        <time>2023-06-10T08:48:54Z</time>
      </trkpt>
      <trkpt lat="48.89916" lon="2.01272">
        <ele>140.07</ele>
        <time>2023-06-10T08:49:11Z</time>
      </trkpt>
      <trkpt lat="48.89911" lon="2.01272">
        <ele>143.78</ele>
        <time>2023-06-10T08:49:21Z</time>
      </trkpt>
      <trkpt lat="48.89911" lon="2.01271">
        <ele>143.79</ele>
        <time>2023-06-10T08:49:22Z</time>
      </trkpt>
      <trkpt lat="48.89911" lon="2.01269">
        <ele>140.19</ele>
        <time>2023-06-10T08:49:26Z</time>
      </trkpt>
      <trkpt lat="48.8991" lon="2.01268">
        <ele>140.22</ele>
        <time>2023-06-10T08:49:27Z</time>
      </trkpt>
      <trkpt lat="48.89908" lon="2.01261">
        <ele>140.42</ele>
        <time>2023-06-10T08:49:33Z</time>
      </trkpt>
      <trkpt lat="48.89903" lon="2.01248">
        <ele>140.6</ele>
        <time>2023-06-10T08:49:47Z</time>
      </trkpt>
      <trkpt lat="48.89907" lon="2.01252">
        <ele>139.86</ele>
        <time>2023-06-10T08:49:57Z</time>
      </trkpt>
      <trkpt lat="48.89916" lon="2.01276">
        <ele>140.98</ele>
        <time>2023-06-10T08:50:13Z</time>
      </trkpt>
      <trkpt lat="48.89914" lon="2.0129">
        <ele>140.88</ele>
        <time>2023-06-10T08:50:21Z</time>
      </trkpt>
      <trkpt lat="48.89894" lon="2.01286">
        <ele>140.15</ele>
        <time>2023-06-10T08:50:39Z</time>
      </trkpt>
      <trkpt lat="48.89872" lon="2.01282">
        <ele>140.96</ele>
        <time>2023-06-10T08:50:56Z</time>
      </trkpt>
      <trkpt lat="48.89859" lon="2.01278">
        <ele>140.62</ele>
        <time>2023-06-10T08:51:04Z</time>
      </trkpt>
      <trkpt lat="48.89843" lon="2.01275">
        <ele>140.39</ele>
        <time>2023-06-10T08:51:14Z</time>
      </trkpt>
      <trkpt lat="48.89842" lon="2.01275">
        <ele>140.19</ele>
        <time>2023-06-10T08:51:15Z</time>
      </trkpt>
      <trkpt lat="48.89831" lon="2.01273">
        <ele>140.21</ele>
        <time>2023-06-10T08:51:22Z</time>
      </trkpt>
      <trkpt lat="48.89822" lon="2.01266">
        <ele>140.26</ele>
        <time>2023-06-10T08:51:29Z</time>
      </trkpt>
      <trkpt lat="48.89812" lon="2.0126">
        <ele>140.49</ele>
        <time>2023-06-10T08:51:40Z</time>
      </trkpt>
      <trkpt lat="48.89806" lon="2.01259">
        <ele>139.36</ele>
        <time>2023-06-10T08:51:44Z</time>
      </trkpt>
      <trkpt lat="48.89783" lon="2.01256">
        <ele>138.85</ele>
        <time>2023-06-10T08:52:02Z</time>
      </trkpt>
      <trkpt lat="48.89771" lon="2.0126">
        <ele>138.26</ele>
        <time>2023-06-10T08:52:18Z</time>
      </trkpt>
      <trkpt lat="48.8977" lon="2.01271">
        <ele>138.82</ele>
        <time>2023-06-10T08:52:30Z</time>
      </trkpt>
      <trkpt lat="48.89767" lon="2.01288">
        <ele>140.02</ele>
        <time>2023-06-10T08:52:41Z</time>
      </trkpt>
      <trkpt lat="48.89761" lon="2.01306">
        <ele>139.89</ele>
        <time>2023-06-10T08:52:54Z</time>
      </trkpt>
      <trkpt lat="48.89757" lon="2.01332">
        <ele>139.77</ele>
        <time>2023-06-10T08:53:11Z</time>
      </trkpt>
      <trkpt lat="48.89748" lon="2.01356">
        <ele>140.05</ele>
        <time>2023-06-10T08:53:25Z</time>
      </trkpt>
      <trkpt lat="48.89746" lon="2.0136">
        <ele>140.48</ele>
        <time>2023-06-10T08:53:28Z</time>
      </trkpt>
      <trkpt lat="48.89731" lon="2.01394">
        <ele>139.79</ele>
        <time>2023-06-10T08:53:47Z</time>
      </trkpt>
      <trkpt lat="48.89721" lon="2.01412">
        <ele>138.58</ele>
        <time>2023-06-10T08:54:04Z</time>
      </trkpt>
      <trkpt lat="48.89702" lon="2.01437">
        <ele>138.53</ele>
        <time>2023-06-10T08:54:24Z</time>
      </trkpt>
      <trkpt lat="48.89686" lon="2.01462">
        <ele>137.76</ele>
        <time>2023-06-10T08:54:40Z</time>
      </trkpt>
      <trkpt lat="48.89672" lon="2.01497">
        <ele>138.59</ele>
        <time>2023-06-10T08:54:59Z</time>
      </trkpt>
      <trkpt lat="48.89661" lon="2.01525">
        <ele>138.25</ele>
        <time>2023-06-10T08:55:16Z</time>
      </trkpt>
      <trkpt lat="48.89651" lon="2.01552">
        <ele>138.07</ele>
        <time>2023-06-10T08:55:33Z</time>
      </trkpt>
      <trkpt lat="48.89636" lon="2.01581">
        <ele>137.39</ele>
        <time>2023-06-10T08:55:50Z</time>
      </trkpt>
      <trkpt lat="48.89633" lon="2.01585">
        <ele>137.81</ele>
        <time>2023-06-10T08:55:52Z</time>
      </trkpt>
      <trkpt lat="48.89611" lon="2.01605">
        <ele>136.56</ele>
        <time>2023-06-10T08:56:11Z</time>
      </trkpt>
      <trkpt lat="48.8959" lon="2.0162">
        <ele>135.52</ele>
        <time>2023-06-10T08:56:27Z</time>
      </trkpt>
      <trkpt lat="48.89564" lon="2.01632">
        <ele>135.62</ele>
        <time>2023-06-10T08:56:44Z</time>
      </trkpt>
      <trkpt lat="48.89551" lon="2.01651">
        <ele>136.1</ele>
        <time>2023-06-10T08:57:03Z</time>
      </trkpt>
      <trkpt lat="48.89536" lon="2.01673">
        <ele>134.98</ele>
        <time>2023-06-10T08:57:21Z</time>
      </trkpt>
      <trkpt lat="48.89519" lon="2.0169">
        <ele>132.26</ele>
        <time>2023-06-10T08:57:36Z</time>
      </trkpt>
      <trkpt lat="48.8951" lon="2.01703">
        <ele>131.88</ele>
        <time>2023-06-10T08:57:45Z</time>
      </trkpt>
      <trkpt lat="48.89497" lon="2.01712">
        <ele>128.5</ele>
        <time>2023-06-10T08:57:56Z</time>
      </trkpt>
      <trkpt lat="48.89482" lon="2.01734">
        <ele>127.08</ele>
        <time>2023-06-10T08:58:11Z</time>
      </trkpt>
      <trkpt lat="48.89472" lon="2.0177">
        <ele>128.72</ele>
        <time>2023-06-10T08:58:29Z</time>
      </trkpt>
      <trkpt lat="48.89452" lon="2.01797">
        <ele>127.05</ele>
        <time>2023-06-10T08:58:46Z</time>
      </trkpt>
      <trkpt lat="48.89439" lon="2.01809">
        <ele>126.64</ele>
        <time>2023-06-10T08:59:00Z</time>
      </trkpt>
      <trkpt lat="48.89434" lon="2.01831">
        <ele>126.74</ele>
        <time>2023-06-10T08:59:18Z</time>
      </trkpt>
      <trkpt lat="48.89429" lon="2.01863">
        <ele>125.47</ele>
        <time>2023-06-10T08:59:37Z</time>
      </trkpt>
      <trkpt lat="48.89427" lon="2.01869">
        <ele>125.62</ele>
        <time>2023-06-10T08:59:43Z</time>
      </trkpt>
      <trkpt lat="48.89426" lon="2.01875">
        <ele>125.11</ele>
        <time>2023-06-10T08:59:46Z</time>
      </trkpt>
      <trkpt lat="48.89423" lon="2.01888">
        <ele>126.04</ele>
        <time>2023-06-10T08:59:52Z</time>
      </trkpt>
      <trkpt lat="48.89418" lon="2.01916">
        <ele>126.33</ele>
        <time>2023-06-10T09:00:08Z</time>
      </trkpt>
      <trkpt lat="48.89413" lon="2.01944">
        <ele>126.21</ele>
        <time>2023-06-10T09:00:20Z</time>
      </trkpt>
      <trkpt lat="48.89407" lon="2.01972">
        <ele>126.36</ele>
        <time>2023-06-10T09:00:33Z</time>
      </trkpt>
      <trkpt lat="48.89408" lon="2.02004">
        <ele>128.84</ele>
        <time>2023-06-10T09:00:49Z</time>
      </trkpt>
      <trkpt lat="48.89412" lon="2.02026">
        <ele>127.83</ele>
        <time>2023-06-10T09:01:03Z</time>
      </trkpt>
      <trkpt lat="48.89408" lon="2.02057">
        <ele>127.55</ele>
        <time>2023-06-10T09:01:21Z</time>
      </trkpt>
      <trkpt lat="48.89402" lon="2.02085">
        <ele>126.06</ele>
        <time>2023-06-10T09:01:35Z</time>
      </trkpt>
      <trkpt lat="48.89403" lon="2.02114">
        <ele>125.05</ele>
        <time>2023-06-10T09:01:53Z</time>
      </trkpt>
      <trkpt lat="48.89406" lon="2.02147">
        <ele>122.16</ele>
        <time>2023-06-10T09:02:10Z</time>
      </trkpt>
      <trkpt lat="48.89413" lon="2.0217">
        <ele>119.27</ele>
        <time>2023-06-10T09:02:26Z</time>
      </trkpt>
      <trkpt lat="48.89414" lon="2.02182">
        <ele>117.68</ele>
        <time>2023-06-10T09:02:34Z</time>
      </trkpt>
      <trkpt lat="48.89413" lon="2.02189">
        <ele>116.77</ele>
        <time>2023-06-10T09:02:38Z</time>
      </trkpt>
      <trkpt lat="48.89412" lon="2.02204">
        <ele>114.83</ele>
        <time>2023-06-10T09:02:48Z</time>
      </trkpt>
      <trkpt lat="48.89415" lon="2.02221">
        <ele>112.65</ele>
        <time>2023-06-10T09:02:57Z</time>
      </trkpt>
      <trkpt lat="48.89421" lon="2.02237">
        <ele>110.13</ele>
        <time>2023-06-10T09:03:13Z</time>
      </trkpt>
      <trkpt lat="48.89423" lon="2.0225">
        <ele>110.15</ele>
        <time>2023-06-10T09:03:18Z</time>
      </trkpt>
      <trkpt lat="48.89416" lon="2.02282">
        <ele>109.14</ele>
        <time>2023-06-10T09:03:33Z</time>
      </trkpt>
      <trkpt lat="48.89413" lon="2.0229">
        <ele>108.76</ele>
        <time>2023-06-10T09:03:37Z</time>
      </trkpt>
      <trkpt lat="48.89411" lon="2.02297">
        <ele>108.83</ele>
        <time>2023-06-10T09:03:41Z</time>
      </trkpt>
      <trkpt lat="48.89406" lon="2.02299">
        <ele>108.66</ele>
        <time>2023-06-10T09:03:44Z</time>
      </trkpt>
      <trkpt lat="48.89404" lon="2.02319">
        <ele>108.03</ele>
        <time>2023-06-10T09:03:55Z</time>
      </trkpt>
      <trkpt lat="48.89406" lon="2.0234">
        <ele>107.14</ele>
        <time>2023-06-10T09:04:08Z</time>
      </trkpt>
      <trkpt lat="48.89408" lon="2.02346">
        <ele>106.62</ele>
        <time>2023-06-10T09:04:11Z</time>
      </trkpt>
      <trkpt lat="48.89414" lon="2.02381">
        <ele>104.7</ele>
        <time>2023-06-10T09:04:29Z</time>
      </trkpt>
      <trkpt lat="48.89414" lon="2.02385">
        <ele>104.66</ele>
        <time>2023-06-10T09:04:32Z</time>
      </trkpt>
      <trkpt lat="48.89421" lon="2.02431">
        <ele>103.8</ele>
        <time>2023-06-10T09:04:50Z</time>
      </trkpt>
      <trkpt lat="48.89424" lon="2.02474">
        <ele>101.85</ele>
        <time>2023-06-10T09:05:08Z</time>
      </trkpt>
      <trkpt lat="48.89421" lon="2.02477">
        <ele>101.56</ele>
        <time>2023-06-10T09:05:15Z</time>
      </trkpt>
      <trkpt lat="48.89417" lon="2.0248">
        <ele>101.7</ele>
        <time>2023-06-10T09:05:28Z</time>
      </trkpt>
      <trkpt lat="48.89418" lon="2.0248">
        <ele>101.3</ele>
        <time>2023-06-10T09:05:32Z</time>
      </trkpt>
      <trkpt lat="48.89416" lon="2.02473">
        <ele>101.01</ele>
        <time>2023-06-10T09:05:44Z</time>
      </trkpt>
      <trkpt lat="48.89412" lon="2.02468">
        <ele>101.33</ele>
        <time>2023-06-10T09:06:04Z</time>
      </trkpt>
      <trkpt lat="48.8941" lon="2.02466">
        <ele>101.37</ele>
        <time>2023-06-10T09:06:21Z</time>
      </trkpt>
      <trkpt lat="48.89405" lon="2.02457">
        <ele>100.79</ele>
        <time>2023-06-10T09:06:31Z</time>
      </trkpt>
      <trkpt lat="48.89403" lon="2.02453">
        <ele>101.03</ele>
        <time>2023-06-10T09:06:34Z</time>
      </trkpt>
      <trkpt lat="48.89401" lon="2.02449">
        <ele>100.68</ele>
        <time>2023-06-10T09:06:37Z</time>
      </trkpt>
      <trkpt lat="48.89395" lon="2.02419">
        <ele>99.85</ele>
        <time>2023-06-10T09:06:55Z</time>
      </trkpt>
      <trkpt lat="48.89389" lon="2.02406">
        <ele>99.03</ele>
        <time>2023-06-10T09:07:05Z</time>
      </trkpt>
      <trkpt lat="48.89386" lon="2.02397">
        <ele>98.26</ele>
        <time>2023-06-10T09:07:11Z</time>
      </trkpt>
      <trkpt lat="48.8938" lon="2.02383">
        <ele>98.65</ele>
        <time>2023-06-10T09:07:19Z</time>
      </trkpt>
      <trkpt lat="48.89371" lon="2.02368">
        <ele>98.08</ele>
        <time>2023-06-10T09:07:30Z</time>
      </trkpt>
      <trkpt lat="48.89365" lon="2.02352">
        <ele>97.54</ele>
        <time>2023-06-10T09:07:38Z</time>
      </trkpt>
      <trkpt lat="48.89358" lon="2.0234">
        <ele>97.09</ele>
        <time>2023-06-10T09:07:46Z</time>
      </trkpt>
      <trkpt lat="48.89354" lon="2.02321">
        <ele>95.85</ele>
        <time>2023-06-10T09:07:56Z</time>
      </trkpt>
      <trkpt lat="48.89351" lon="2.02316">
        <ele>95.85</ele>
        <time>2023-06-10T09:08:00Z</time>
      </trkpt>
      <trkpt lat="48.8935" lon="2.02312">
        <ele>95.51</ele>
        <time>2023-06-10T09:08:02Z</time>
      </trkpt>
      <trkpt lat="48.89349" lon="2.02304">
        <ele>95.61</ele>
        <time>2023-06-10T09:08:06Z</time>
      </trkpt>
      <trkpt lat="48.89347" lon="2.023">
        <ele>96.19</ele>
        <time>2023-06-10T09:08:09Z</time>
      </trkpt>
      <trkpt lat="48.89342" lon="2.0229">
        <ele>95.71</ele>
        <time>2023-06-10T09:08:15Z</time>
      </trkpt>
      <trkpt lat="48.8934" lon="2.02276">
        <ele>94.64</ele>
        <time>2023-06-10T09:08:22Z</time>
      </trkpt>
      <trkpt lat="48.89331" lon="2.02263">
        <ele>93.94</ele>
        <time>2023-06-10T09:08:33Z</time>
      </trkpt>
      <trkpt lat="48.89324" lon="2.02251">
        <ele>93.91</ele>
        <time>2023-06-10T09:08:41Z</time>
      </trkpt>
      <trkpt lat="48.89319" lon="2.02243">
        <ele>93.89</ele>
        <time>2023-06-10T09:08:45Z</time>
      </trkpt>
      <trkpt lat="48.89317" lon="2.0224">
        <ele>93.85</ele>
        <time>2023-06-10T09:08:47Z</time>
      </trkpt>
      <trkpt lat="48.89308" lon="2.02223">
        <ele>93.36</ele>
        <time>2023-06-10T09:08:57Z</time>
      </trkpt>
      <trkpt lat="48.89304" lon="2.0222">
        <ele>92.95</ele>
        <time>2023-06-10T09:09:00Z</time>
      </trkpt>
      <trkpt lat="48.89296" lon="2.02204">
        <ele>92.32</ele>
        <time>2023-06-10T09:09:10Z</time>
      </trkpt>
      <trkpt lat="48.8929" lon="2.02194">
        <ele>92.22</ele>
        <time>2023-06-10T09:09:17Z</time>
      </trkpt>
      <trkpt lat="48.89278" lon="2.02182">
        <ele>91.1</ele>
        <time>2023-06-10T09:09:27Z</time>
      </trkpt>
      <trkpt lat="48.89271" lon="2.02182">
        <ele>90.65</ele>
        <time>2023-06-10T09:09:32Z</time>
      </trkpt>
      <trkpt lat="48.89264" lon="2.02178">
        <ele>90.74</ele>
        <time>2023-06-10T09:09:41Z</time>
      </trkpt>
      <trkpt lat="48.8925" lon="2.02172">
        <ele>90.44</ele>
        <time>2023-06-10T09:09:52Z</time>
      </trkpt>
      <trkpt lat="48.89244" lon="2.02174">
        <ele>91.31</ele>
        <time>2023-06-10T09:09:56Z</time>
      </trkpt>
      <trkpt lat="48.89237" lon="2.02175">
        <ele>91.15</ele>
        <time>2023-06-10T09:10:00Z</time>
      </trkpt>
      <trkpt lat="48.89225" lon="2.02174">
        <ele>90.57</ele>
        <time>2023-06-10T09:10:10Z</time>
      </trkpt>
      <trkpt lat="48.89225" lon="2.02173">
        <ele>90.43</ele>
        <time>2023-06-10T09:10:11Z</time>
      </trkpt>
      <trkpt lat="48.89222" lon="2.02172">
        <ele>90.83</ele>
        <time>2023-06-10T09:10:14Z</time>
      </trkpt>
      <trkpt lat="48.89211" lon="2.02165">
        <ele>90.76</ele>
        <time>2023-06-10T09:10:26Z</time>
      </trkpt>
      <trkpt lat="48.89198" lon="2.02155">
        <ele>90.59</ele>
        <time>2023-06-10T09:10:42Z</time>
      </trkpt>
      <trkpt lat="48.89171" lon="2.02159">
        <ele>90.49</ele>
        <time>2023-06-10T09:11:00Z</time>
      </trkpt>
      <trkpt lat="48.89158" lon="2.02158">
        <ele>90.7</ele>
        <time>2023-06-10T09:11:10Z</time>
      </trkpt>
      <trkpt lat="48.89155" lon="2.02157">
        <ele>90</ele>
        <time>2023-06-10T09:11:13Z</time>
      </trkpt>
      <trkpt lat="48.89142" lon="2.02158">
        <ele>90.71</ele>
        <time>2023-06-10T09:11:22Z</time>
      </trkpt>
      <trkpt lat="48.89134" lon="2.02155">
        <ele>90.27</ele>
        <time>2023-06-10T09:11:28Z</time>
      </trkpt>
      <trkpt lat="48.8913" lon="2.02155">
        <ele>90.33</ele>
        <time>2023-06-10T09:11:30Z</time>
      </trkpt>
      <trkpt lat="48.89115" lon="2.02157">
        <ele>90.41</ele>
        <time>2023-06-10T09:11:39Z</time>
      </trkpt>
      <trkpt lat="48.89098" lon="2.02159">
        <ele>90.56</ele>
        <time>2023-06-10T09:11:49Z</time>
      </trkpt>
      <trkpt lat="48.89082" lon="2.02157">
        <ele>90.43</ele>
        <time>2023-06-10T09:11:59Z</time>
      </trkpt>
      <trkpt lat="48.8908" lon="2.02159">
        <ele>90.29</ele>
        <time>2023-06-10T09:12:01Z</time>
      </trkpt>
      <trkpt lat="48.89065" lon="2.02162">
        <ele>90.93</ele>
        <time>2023-06-10T09:12:11Z</time>
      </trkpt>
      <trkpt lat="48.89063" lon="2.02162">
        <ele>90.93</ele>
        <time>2023-06-10T09:12:13Z</time>
      </trkpt>
      <trkpt lat="48.89055" lon="2.02163">
        <ele>90.78</ele>
        <time>2023-06-10T09:12:19Z</time>
      </trkpt>
      <trkpt lat="48.89053" lon="2.02163">
        <ele>90.97</ele>
        <time>2023-06-10T09:12:21Z</time>
      </trkpt>
      <trkpt lat="48.89047" lon="2.02156">
        <ele>91.15</ele>
        <time>2023-06-10T09:12:27Z</time>
      </trkpt>
      <trkpt lat="48.89038" lon="2.02154">
        <ele>91.26</ele>
        <time>2023-06-10T09:12:32Z</time>
      </trkpt>
      <trkpt lat="48.89031" lon="2.0215">
        <ele>91.38</ele>
        <time>2023-06-10T09:12:36Z</time>
      </trkpt>
      <trkpt lat="48.89022" lon="2.0214">
        <ele>92.03</ele>
        <time>2023-06-10T09:12:45Z</time>
      </trkpt>
      <trkpt lat="48.89018" lon="2.02139">
        <ele>92.12</ele>
        <time>2023-06-10T09:12:48Z</time>
      </trkpt>
      <trkpt lat="48.89015" lon="2.02139">
        <ele>92.57</ele>
        <time>2023-06-10T09:12:50Z</time>
      </trkpt>
      <trkpt lat="48.89013" lon="2.02137">
        <ele>92.4</ele>
        <time>2023-06-10T09:12:52Z</time>
      </trkpt>
      <trkpt lat="48.89011" lon="2.02135">
        <ele>92.47</ele>
        <time>2023-06-10T09:12:54Z</time>
      </trkpt>
      <trkpt lat="48.89002" lon="2.02131">
        <ele>92.71</ele>
        <time>2023-06-10T09:13:01Z</time>
      </trkpt>
      <trkpt lat="48.88998" lon="2.02128">
        <ele>92.8</ele>
        <time>2023-06-10T09:13:05Z</time>
      </trkpt>
      <trkpt lat="48.88984" lon="2.02115">
        <ele>93.25</ele>
        <time>2023-06-10T09:13:16Z</time>
      </trkpt>
      <trkpt lat="48.88977" lon="2.0211">
        <ele>93.09</ele>
        <time>2023-06-10T09:13:22Z</time>
      </trkpt>
      <trkpt lat="48.88976" lon="2.02109">
        <ele>93.2</ele>
        <time>2023-06-10T09:13:24Z</time>
      </trkpt>
      <trkpt lat="48.8897" lon="2.02105">
        <ele>93.43</ele>
        <time>2023-06-10T09:13:28Z</time>
      </trkpt>
      <trkpt lat="48.8896" lon="2.02103">
        <ele>93.56</ele>
        <time>2023-06-10T09:13:34Z</time>
      </trkpt>
      <trkpt lat="48.88958" lon="2.02102">
        <ele>93.27</ele>
        <time>2023-06-10T09:13:36Z</time>
      </trkpt>
      <trkpt lat="48.88946" lon="2.02097">
        <ele>94.45</ele>
        <time>2023-06-10T09:13:45Z</time>
      </trkpt>
      <trkpt lat="48.88943" lon="2.02095">
        <ele>94.38</ele>
        <time>2023-06-10T09:13:47Z</time>
      </trkpt>
      <trkpt lat="48.88935" lon="2.02091">
        <ele>94.72</ele>
        <time>2023-06-10T09:13:57Z</time>
      </trkpt>
      <trkpt lat="48.88926" lon="2.02084">
        <ele>95.63</ele>
        <time>2023-06-10T09:14:06Z</time>
      </trkpt>
      <trkpt lat="48.88904" lon="2.02061">
        <ele>96.04</ele>
        <time>2023-06-10T09:14:20Z</time>
      </trkpt>
      <trkpt lat="48.88899" lon="2.02053">
        <ele>96.93</ele>
        <time>2023-06-10T09:14:24Z</time>
      </trkpt>
      <trkpt lat="48.88896" lon="2.02049">
        <ele>97.18</ele>
        <time>2023-06-10T09:14:26Z</time>
      </trkpt>
      <trkpt lat="48.88878" lon="2.02037">
        <ele>97.81</ele>
        <time>2023-06-10T09:14:37Z</time>
      </trkpt>
      <trkpt lat="48.88871" lon="2.02032">
        <ele>98.24</ele>
        <time>2023-06-10T09:14:40Z</time>
      </trkpt>
      <trkpt lat="48.88854" lon="2.02009">
        <ele>100.35</ele>
        <time>2023-06-10T09:14:58Z</time>
      </trkpt>
      <trkpt lat="48.88848" lon="2.01996">
        <ele>101.99</ele>
        <time>2023-06-10T09:15:10Z</time>
      </trkpt>
      <trkpt lat="48.88841" lon="2.01984">
        <ele>102.89</ele>
        <time>2023-06-10T09:15:20Z</time>
      </trkpt>
      <trkpt lat="48.88839" lon="2.01983">
        <ele>102.99</ele>
        <time>2023-06-10T09:15:21Z</time>
      </trkpt>
      <trkpt lat="48.88833" lon="2.01968">
        <ele>104.07</ele>
        <time>2023-06-10T09:15:29Z</time>
      </trkpt>
      <trkpt lat="48.88826" lon="2.01945">
        <ele>105.46</ele>
        <time>2023-06-10T09:15:42Z</time>
      </trkpt>
      <trkpt lat="48.88818" lon="2.01929">
        <ele>105.9</ele>
        <time>2023-06-10T09:15:52Z</time>
      </trkpt>
      <trkpt lat="48.88815" lon="2.01922">
        <ele>106.05</ele>
        <time>2023-06-10T09:15:55Z</time>
      </trkpt>
      <trkpt lat="48.88806" lon="2.01906">
        <ele>106.59</ele>
        <time>2023-06-10T09:16:03Z</time>
      </trkpt>
      <trkpt lat="48.88787" lon="2.01882">
        <ele>107.81</ele>
        <time>2023-06-10T09:16:20Z</time>
      </trkpt>
      <trkpt lat="48.88765" lon="2.01864">
        <ele>109.74</ele>
        <time>2023-06-10T09:16:39Z</time>
      </trkpt>
      <trkpt lat="48.88749" lon="2.01852">
        <ele>110.9</ele>
        <time>2023-06-10T09:16:53Z</time>
      </trkpt>
      <trkpt lat="48.88736" lon="2.01843">
        <ele>112.73</ele>
        <time>2023-06-10T09:17:04Z</time>
      </trkpt>
      <trkpt lat="48.88727" lon="2.01832">
        <ele>113.24</ele>
        <time>2023-06-10T09:17:14Z</time>
      </trkpt>
      <trkpt lat="48.88725" lon="2.01831">
        <ele>113.34</ele>
        <time>2023-06-10T09:17:23Z</time>
      </trkpt>
      <trkpt lat="48.88719" lon="2.01833">
        <ele>113.41</ele>
        <time>2023-06-10T09:17:41Z</time>
      </trkpt>
      <trkpt lat="48.88727" lon="2.0183">
        <ele>113.73</ele>
        <time>2023-06-10T09:18:04Z</time>
      </trkpt>
      <trkpt lat="48.88729" lon="2.01834">
        <ele>112.97</ele>
        <time>2023-06-10T09:18:12Z</time>
      </trkpt>
      <trkpt lat="48.88722" lon="2.01849">
        <ele>110.13</ele>
        <time>2023-06-10T09:18:22Z</time>
      </trkpt>
      <trkpt lat="48.8872" lon="2.01853">
        <ele>109.11</ele>
        <time>2023-06-10T09:18:25Z</time>
      </trkpt>
      <trkpt lat="48.88712" lon="2.01862">
        <ele>107.9</ele>
        <time>2023-06-10T09:18:32Z</time>
      </trkpt>
      <trkpt lat="48.88706" lon="2.01866">
        <ele>106.98</ele>
        <time>2023-06-10T09:18:41Z</time>
      </trkpt>
      <trkpt lat="48.88703" lon="2.01867">
        <ele>106.56</ele>
        <time>2023-06-10T09:18:45Z</time>
      </trkpt>
      <trkpt lat="48.88699" lon="2.01873">
        <ele>106.01</ele>
        <time>2023-06-10T09:18:53Z</time>
      </trkpt>
      <trkpt lat="48.88687" lon="2.0189">
        <ele>106.84</ele>
        <time>2023-06-10T09:19:06Z</time>
      </trkpt>
      <trkpt lat="48.88679" lon="2.01895">
        <ele>108.24</ele>
        <time>2023-06-10T09:19:15Z</time>
      </trkpt>
      <trkpt lat="48.88677" lon="2.01897">
        <ele>108.61</ele>
        <time>2023-06-10T09:19:17Z</time>
      </trkpt>
      <trkpt lat="48.88676" lon="2.01898">
        <ele>109.25</ele>
        <time>2023-06-10T09:19:19Z</time>
      </trkpt>
      <trkpt lat="48.88671" lon="2.01903">
        <ele>109.96</ele>
        <time>2023-06-10T09:19:22Z</time>
      </trkpt>
      <trkpt lat="48.88668" lon="2.01907">
        <ele>111.71</ele>
        <time>2023-06-10T09:19:26Z</time>
      </trkpt>
      <trkpt lat="48.88666" lon="2.01909">
        <ele>112.27</ele>
        <time>2023-06-10T09:19:27Z</time>
      </trkpt>
      <trkpt lat="48.88664" lon="2.01914">
        <ele>113.32</ele>
        <time>2023-06-10T09:19:32Z</time>
      </trkpt>
      <trkpt lat="48.88662" lon="2.01916">
        <ele>114.28</ele>
        <time>2023-06-10T09:19:34Z</time>
      </trkpt>
      <trkpt lat="48.88662" lon="2.01916">
        <ele>114.43</ele>
        <time>2023-06-10T09:19:35Z</time>
      </trkpt>
      <trkpt lat="48.88659" lon="2.01923">
        <ele>114.97</ele>
        <time>2023-06-10T09:19:39Z</time>
      </trkpt>
      <trkpt lat="48.88657" lon="2.01938">
        <ele>116.22</ele>
        <time>2023-06-10T09:19:49Z</time>
      </trkpt>
      <trkpt lat="48.88656" lon="2.0194">
        <ele>116.21</ele>
        <time>2023-06-10T09:19:51Z</time>
      </trkpt>
      <trkpt lat="48.8865" lon="2.01958">
        <ele>115.53</ele>
        <time>2023-06-10T09:19:58Z</time>
      </trkpt>
      <trkpt lat="48.88648" lon="2.01962">
        <ele>115.45</ele>
        <time>2023-06-10T09:20:00Z</time>
      </trkpt>
      <trkpt lat="48.88646" lon="2.0197">
        <ele>115.11</ele>
        <time>2023-06-10T09:20:04Z</time>
      </trkpt>
      <trkpt lat="48.88643" lon="2.01984">
        <ele>114.85</ele>
        <time>2023-06-10T09:20:10Z</time>
      </trkpt>
      <trkpt lat="48.88641" lon="2.01989">
        <ele>114.81</ele>
        <time>2023-06-10T09:20:13Z</time>
      </trkpt>
      <trkpt lat="48.88631" lon="2.02031">
        <ele>113.42</ele>
        <time>2023-06-10T09:20:30Z</time>
      </trkpt>
      <trkpt lat="48.88628" lon="2.02042">
        <ele>112.55</ele>
        <time>2023-06-10T09:20:37Z</time>
      </trkpt>
      <trkpt lat="48.88627" lon="2.02046">
        <ele>112.49</ele>
        <time>2023-06-10T09:20:39Z</time>
      </trkpt>
      <trkpt lat="48.88627" lon="2.02049">
        <ele>112.47</ele>
        <time>2023-06-10T09:20:41Z</time>
      </trkpt>
      <trkpt lat="48.88624" lon="2.02055">
        <ele>111.54</ele>
        <time>2023-06-10T09:20:45Z</time>
      </trkpt>
      <trkpt lat="48.88621" lon="2.0206">
        <ele>111.35</ele>
        <time>2023-06-10T09:20:49Z</time>
      </trkpt>
      <trkpt lat="48.88621" lon="2.0207">
        <ele>110.76</ele>
        <time>2023-06-10T09:20:54Z</time>
      </trkpt>
      <trkpt lat="48.88619" lon="2.02082">
        <ele>109.49</ele>
        <time>2023-06-10T09:20:59Z</time>
      </trkpt>
      <trkpt lat="48.88616" lon="2.0209">
        <ele>107.7</ele>
        <time>2023-06-10T09:21:04Z</time>
      </trkpt>
      <trkpt lat="48.88613" lon="2.02094">
        <ele>106.8</ele>
        <time>2023-06-10T09:21:08Z</time>
      </trkpt>
      <trkpt lat="48.88609" lon="2.02106">
        <ele>106.31</ele>
        <time>2023-06-10T09:21:21Z</time>
      </trkpt>
      <trkpt lat="48.88607" lon="2.02111">
        <ele>104.79</ele>
        <time>2023-06-10T09:21:24Z</time>
      </trkpt>
      <trkpt lat="48.88606" lon="2.02114">
        <ele>103.91</ele>
        <time>2023-06-10T09:21:26Z</time>
      </trkpt>
      <trkpt lat="48.88598" lon="2.02135">
        <ele>103.39</ele>
        <time>2023-06-10T09:21:35Z</time>
      </trkpt>
      <trkpt lat="48.886" lon="2.02143">
        <ele>102.83</ele>
        <time>2023-06-10T09:21:41Z</time>
      </trkpt>
      <trkpt lat="48.886" lon="2.02143">
        <ele>102.7</ele>
        <time>2023-06-10T09:21:42Z</time>
      </trkpt>
      <trkpt lat="48.88601" lon="2.0215">
        <ele>102.04</ele>
        <time>2023-06-10T09:21:47Z</time>
      </trkpt>
      <trkpt lat="48.88604" lon="2.02153">
        <ele>102.02</ele>
        <time>2023-06-10T09:21:50Z</time>
      </trkpt>
      <trkpt lat="48.88608" lon="2.02159">
        <ele>101.5</ele>
        <time>2023-06-10T09:21:56Z</time>
      </trkpt>
      <trkpt lat="48.88614" lon="2.02165">
        <ele>101.28</ele>
        <time>2023-06-10T09:22:02Z</time>
      </trkpt>
      <trkpt lat="48.88616" lon="2.02169">
        <ele>100.98</ele>
        <time>2023-06-10T09:22:06Z</time>
      </trkpt>
      <trkpt lat="48.8862" lon="2.02176">
        <ele>100.83</ele>
        <time>2023-06-10T09:22:15Z</time>
      </trkpt>
      <trkpt lat="48.88622" lon="2.02178">
        <ele>100.44</ele>
        <time>2023-06-10T09:22:18Z</time>
      </trkpt>
      <trkpt lat="48.88627" lon="2.02183">
        <ele>100.48</ele>
        <time>2023-06-10T09:22:22Z</time>
      </trkpt>
      <trkpt lat="48.88629" lon="2.02185">
        <ele>100.67</ele>
        <time>2023-06-10T09:22:24Z</time>
      </trkpt>
      <trkpt lat="48.88631" lon="2.0219">
        <ele>100.4</ele>
        <time>2023-06-10T09:22:26Z</time>
      </trkpt>
      <trkpt lat="48.88632" lon="2.02191">
        <ele>100.52</ele>
        <time>2023-06-10T09:22:27Z</time>
      </trkpt>
      <trkpt lat="48.88634" lon="2.02192">
        <ele>100.39</ele>
        <time>2023-06-10T09:22:28Z</time>
      </trkpt>
      <trkpt lat="48.88635" lon="2.02194">
        <ele>101.02</ele>
        <time>2023-06-10T09:22:29Z</time>
      </trkpt>
      <trkpt lat="48.88643" lon="2.02203">
        <ele>100.43</ele>
        <time>2023-06-10T09:22:36Z</time>
      </trkpt>
      <trkpt lat="48.88649" lon="2.02209">
        <ele>100.39</ele>
        <time>2023-06-10T09:22:41Z</time>
      </trkpt>
      <trkpt lat="48.88651" lon="2.02211">
        <ele>100.41</ele>
        <time>2023-06-10T09:22:43Z</time>
      </trkpt>
      <trkpt lat="48.88655" lon="2.02213">
        <ele>99.9</ele>
        <time>2023-06-10T09:22:46Z</time>
      </trkpt>
      <trkpt lat="48.88656" lon="2.02214">
        <ele>100.19</ele>
        <time>2023-06-10T09:22:47Z</time>
      </trkpt>
      <trkpt lat="48.88657" lon="2.02216">
        <ele>100.55</ele>
        <time>2023-06-10T09:22:48Z</time>
      </trkpt>
      <trkpt lat="48.8866" lon="2.02221">
        <ele>100.07</ele>
        <time>2023-06-10T09:22:52Z</time>
      </trkpt>
      <trkpt lat="48.8866" lon="2.02224">
        <ele>99.89</ele>
        <time>2023-06-10T09:22:53Z</time>
      </trkpt>
      <trkpt lat="48.88665" lon="2.0223">
        <ele>100.11</ele>
        <time>2023-06-10T09:22:59Z</time>
      </trkpt>
      <trkpt lat="48.88665" lon="2.02231">
        <ele>100.03</ele>
        <time>2023-06-10T09:23:00Z</time>
      </trkpt>
      <trkpt lat="48.88666" lon="2.02233">
        <ele>99.85</ele>
        <time>2023-06-10T09:23:01Z</time>
      </trkpt>
      <trkpt lat="48.88673" lon="2.02241">
        <ele>100.08</ele>
        <time>2023-06-10T09:23:08Z</time>
      </trkpt>
      <trkpt lat="48.88684" lon="2.02254">
        <ele>100.43</ele>
        <time>2023-06-10T09:23:17Z</time>
      </trkpt>
      <trkpt lat="48.88685" lon="2.02255">
        <ele>100.06</ele>
        <time>2023-06-10T09:23:18Z</time>
      </trkpt>
      <trkpt lat="48.88685" lon="2.02256">
        <ele>100.45</ele>
        <time>2023-06-10T09:23:19Z</time>
      </trkpt>
      <trkpt lat="48.88686" lon="2.02257">
        <ele>100.46</ele>
        <time>2023-06-10T09:23:20Z</time>
      </trkpt>
      <trkpt lat="48.88687" lon="2.02258">
        <ele>100.39</ele>
        <time>2023-06-10T09:23:21Z</time>
      </trkpt>
      <trkpt lat="48.88689" lon="2.0226">
        <ele>100.02</ele>
        <time>2023-06-10T09:23:23Z</time>
      </trkpt>
      <trkpt lat="48.8869" lon="2.02261">
        <ele>100.21</ele>
        <time>2023-06-10T09:23:24Z</time>
      </trkpt>
      <trkpt lat="48.88691" lon="2.02262">
        <ele>99.78</ele>
        <time>2023-06-10T09:23:25Z</time>
      </trkpt>
      <trkpt lat="48.88692" lon="2.02267">
        <ele>99.91</ele>
        <time>2023-06-10T09:23:30Z</time>
      </trkpt>
      <trkpt lat="48.887" lon="2.02271">
        <ele>99.33</ele>
        <time>2023-06-10T09:23:37Z</time>
      </trkpt>
      <trkpt lat="48.88702" lon="2.02272">
        <ele>99.29</ele>
        <time>2023-06-10T09:23:38Z</time>
      </trkpt>
      <trkpt lat="48.88715" lon="2.02275">
        <ele>99.4</ele>
        <time>2023-06-10T09:23:46Z</time>
      </trkpt>
      <trkpt lat="48.88716" lon="2.02276">
        <ele>98.98</ele>
        <time>2023-06-10T09:23:47Z</time>
      </trkpt>
      <trkpt lat="48.88717" lon="2.02279">
        <ele>99.31</ele>
        <time>2023-06-10T09:23:48Z</time>
      </trkpt>
      <trkpt lat="48.88722" lon="2.02289">
        <ele>99.32</ele>
        <time>2023-06-10T09:23:55Z</time>
      </trkpt>
      <trkpt lat="48.88726" lon="2.023">
        <ele>100.15</ele>
        <time>2023-06-10T09:24:01Z</time>
      </trkpt>
      <trkpt lat="48.88726" lon="2.02313">
        <ele>101.16</ele>
        <time>2023-06-10T09:24:09Z</time>
      </trkpt>
      <trkpt lat="48.88723" lon="2.02323">
        <ele>102.22</ele>
        <time>2023-06-10T09:24:16Z</time>
      </trkpt>
      <trkpt lat="48.88721" lon="2.02335">
        <ele>104.6</ele>
        <time>2023-06-10T09:24:25Z</time>
      </trkpt>
      <trkpt lat="48.88717" lon="2.02344">
        <ele>103.42</ele>
        <time>2023-06-10T09:24:33Z</time>
      </trkpt>
      <trkpt lat="48.88712" lon="2.02359">
        <ele>106.55</ele>
        <time>2023-06-10T09:24:45Z</time>
      </trkpt>
      <trkpt lat="48.88711" lon="2.0236">
        <ele>106.61</ele>
        <time>2023-06-10T09:24:46Z</time>
      </trkpt>
      <trkpt lat="48.88702" lon="2.02373">
        <ele>107.66</ele>
        <time>2023-06-10T09:24:57Z</time>
      </trkpt>
      <trkpt lat="48.88689" lon="2.02403">
        <ele>110.12</ele>
        <time>2023-06-10T09:25:13Z</time>
      </trkpt>
      <trkpt lat="48.88688" lon="2.02406">
        <ele>110.34</ele>
        <time>2023-06-10T09:25:15Z</time>
      </trkpt>
      <trkpt lat="48.88684" lon="2.02413">
        <ele>111.37</ele>
        <time>2023-06-10T09:25:19Z</time>
      </trkpt>
      <trkpt lat="48.8868" lon="2.02422">
        <ele>112.09</ele>
        <time>2023-06-10T09:25:27Z</time>
      </trkpt>
      <trkpt lat="48.88668" lon="2.02436">
        <ele>113.95</ele>
        <time>2023-06-10T09:25:39Z</time>
      </trkpt>
      <trkpt lat="48.88663" lon="2.02451">
        <ele>114.74</ele>
        <time>2023-06-10T09:25:48Z</time>
      </trkpt>
      <trkpt lat="48.88656" lon="2.02464">
        <ele>116.29</ele>
        <time>2023-06-10T09:25:56Z</time>
      </trkpt>
      <trkpt lat="48.88655" lon="2.02464">
        <ele>116.28</ele>
        <time>2023-06-10T09:25:57Z</time>
      </trkpt>
      <trkpt lat="48.88647" lon="2.02478">
        <ele>118.01</ele>
        <time>2023-06-10T09:26:07Z</time>
      </trkpt>
      <trkpt lat="48.88634" lon="2.02497">
        <ele>118.66</ele>
        <time>2023-06-10T09:26:19Z</time>
      </trkpt>
      <trkpt lat="48.88627" lon="2.02512">
        <ele>119.26</ele>
        <time>2023-06-10T09:26:29Z</time>
      </trkpt>
      <trkpt lat="48.88617" lon="2.02529">
        <ele>119.53</ele>
        <time>2023-06-10T09:26:38Z</time>
      </trkpt>
      <trkpt lat="48.88613" lon="2.02534">
        <ele>119.79</ele>
        <time>2023-06-10T09:26:42Z</time>
      </trkpt>
      <trkpt lat="48.88608" lon="2.02539">
        <ele>119.53</ele>
        <time>2023-06-10T09:26:51Z</time>
      </trkpt>
      <trkpt lat="48.88605" lon="2.02548">
        <ele>119.02</ele>
        <time>2023-06-10T09:27:03Z</time>
      </trkpt>
      <trkpt lat="48.88601" lon="2.02549">
        <ele>119.54</ele>
        <time>2023-06-10T09:27:25Z</time>
      </trkpt>
      <trkpt lat="48.886" lon="2.02547">
        <ele>119.28</ele>
        <time>2023-06-10T09:27:29Z</time>
      </trkpt>
      <trkpt lat="48.88596" lon="2.02548">
        <ele>119.48</ele>
        <time>2023-06-10T09:27:52Z</time>
      </trkpt>
      <trkpt lat="48.88596" lon="2.02546">
        <ele>119.1</ele>
        <time>2023-06-10T09:27:57Z</time>
      </trkpt>
      <trkpt lat="48.88597" lon="2.02546">
        <ele>119.73</ele>
        <time>2023-06-10T09:28:20Z</time>
      </trkpt>
      <trkpt lat="48.88594" lon="2.02547">
        <ele>120.05</ele>
        <time>2023-06-10T09:28:39Z</time>
      </trkpt>
      <trkpt lat="48.88593" lon="2.02553">
        <ele>120.62</ele>
        <time>2023-06-10T09:28:56Z</time>
      </trkpt>
      <trkpt lat="48.88595" lon="2.02571">
        <ele>118.34</ele>
        <time>2023-06-10T09:29:10Z</time>
      </trkpt>
      <trkpt lat="48.88595" lon="2.02582">
        <ele>117.25</ele>
        <time>2023-06-10T09:29:19Z</time>
      </trkpt>
      <trkpt lat="48.88596" lon="2.026">
        <ele>114.23</ele>
        <time>2023-06-10T09:29:34Z</time>
      </trkpt>
      <trkpt lat="48.88597" lon="2.02628">
        <ele>112.3</ele>
        <time>2023-06-10T09:29:48Z</time>
      </trkpt>
      <trkpt lat="48.88599" lon="2.02673">
        <ele>110</ele>
        <time>2023-06-10T09:30:07Z</time>
      </trkpt>
      <trkpt lat="48.88601" lon="2.0271">
        <ele>108.13</ele>
        <time>2023-06-10T09:30:23Z</time>
      </trkpt>
      <trkpt lat="48.88603" lon="2.02739">
        <ele>108.13</ele>
        <time>2023-06-10T09:30:42Z</time>
      </trkpt>
      <trkpt lat="48.88604" lon="2.02777">
        <ele>110.35</ele>
        <time>2023-06-10T09:30:58Z</time>
      </trkpt>
      <trkpt lat="48.88607" lon="2.0279">
        <ele>111.86</ele>
        <time>2023-06-10T09:31:06Z</time>
      </trkpt>
      <trkpt lat="48.88613" lon="2.02808">
        <ele>114.62</ele>
        <time>2023-06-10T09:31:20Z</time>
      </trkpt>
      <trkpt lat="48.88621" lon="2.02838">
        <ele>115.64</ele>
        <time>2023-06-10T09:31:39Z</time>
      </trkpt>
      <trkpt lat="48.88628" lon="2.02852">
        <ele>115.32</ele>
        <time>2023-06-10T09:31:50Z</time>
      </trkpt>
      <trkpt lat="48.88633" lon="2.02869">
        <ele>115.08</ele>
        <time>2023-06-10T09:32:00Z</time>
      </trkpt>
      <trkpt lat="48.88637" lon="2.02882">
        <ele>115.13</ele>
        <time>2023-06-10T09:32:07Z</time>
      </trkpt>
      <trkpt lat="48.88645" lon="2.02908">
        <ele>114.88</ele>
        <time>2023-06-10T09:32:19Z</time>
      </trkpt>
      <trkpt lat="48.88656" lon="2.02934">
        <ele>113.8</ele>
        <time>2023-06-10T09:32:38Z</time>
      </trkpt>
      <trkpt lat="48.88654" lon="2.02945">
        <ele>113.96</ele>
        <time>2023-06-10T09:32:45Z</time>
      </trkpt>
      <trkpt lat="48.88653" lon="2.02952">
        <ele>113.86</ele>
        <time>2023-06-10T09:32:48Z</time>
      </trkpt>
      <trkpt lat="48.8865" lon="2.02961">
        <ele>113.44</ele>
        <time>2023-06-10T09:32:51Z</time>
      </trkpt>
      <trkpt lat="48.88643" lon="2.02993">
        <ele>113.14</ele>
        <time>2023-06-10T09:33:07Z</time>
      </trkpt>
      <trkpt lat="48.88641" lon="2.03009">
        <ele>112.6</ele>
        <time>2023-06-10T09:33:15Z</time>
      </trkpt>
      <trkpt lat="48.88634" lon="2.03027">
        <ele>111.52</ele>
        <time>2023-06-10T09:33:27Z</time>
      </trkpt>
      <trkpt lat="48.88632" lon="2.03034">
        <ele>111.16</ele>
        <time>2023-06-10T09:33:32Z</time>
      </trkpt>
      <trkpt lat="48.88626" lon="2.0306">
        <ele>109</ele>
        <time>2023-06-10T09:33:48Z</time>
      </trkpt>
      <trkpt lat="48.88619" lon="2.03085">
        <ele>105.84</ele>
        <time>2023-06-10T09:34:02Z</time>
      </trkpt>
      <trkpt lat="48.88612" lon="2.03105">
        <ele>103.46</ele>
        <time>2023-06-10T09:34:16Z</time>
      </trkpt>
      <trkpt lat="48.8861" lon="2.03125">
        <ele>100.58</ele>
        <time>2023-06-10T09:34:32Z</time>
      </trkpt>
      <trkpt lat="48.88609" lon="2.03127">
        <ele>100.3</ele>
        <time>2023-06-10T09:34:34Z</time>
      </trkpt>
      <trkpt lat="48.88605" lon="2.03144">
        <ele>99.12</ele>
        <time>2023-06-10T09:34:50Z</time>
      </trkpt>
      <trkpt lat="48.88598" lon="2.03171">
        <ele>98.27</ele>
        <time>2023-06-10T09:35:05Z</time>
      </trkpt>
      <trkpt lat="48.88592" lon="2.03199">
        <ele>98.1</ele>
        <time>2023-06-10T09:35:21Z</time>
      </trkpt>
      <trkpt lat="48.88588" lon="2.03211">
        <ele>98.45</ele>
        <time>2023-06-10T09:35:27Z</time>
      </trkpt>
      <trkpt lat="48.88579" lon="2.03243">
        <ele>99.07</ele>
        <time>2023-06-10T09:35:45Z</time>
      </trkpt>
      <trkpt lat="48.88575" lon="2.03257">
        <ele>99.94</ele>
        <time>2023-06-10T09:35:55Z</time>
      </trkpt>
      <trkpt lat="48.8857" lon="2.03286">
        <ele>103.04</ele>
        <time>2023-06-10T09:36:11Z</time>
      </trkpt>
      <trkpt lat="48.88565" lon="2.03302">
        <ele>106.02</ele>
        <time>2023-06-10T09:36:26Z</time>
      </trkpt>
      <trkpt lat="48.88563" lon="2.03309">
        <ele>108.11</ele>
        <time>2023-06-10T09:36:34Z</time>
      </trkpt>
      <trkpt lat="48.88561" lon="2.03318">
        <ele>110.4</ele>
        <time>2023-06-10T09:36:46Z</time>
      </trkpt>
      <trkpt lat="48.88551" lon="2.03339">
        <ele>112.26</ele>
        <time>2023-06-10T09:37:03Z</time>
      </trkpt>
      <trkpt lat="48.88543" lon="2.03365">
        <ele>115.31</ele>
        <time>2023-06-10T09:37:21Z</time>
      </trkpt>
      <trkpt lat="48.88538" lon="2.03387">
        <ele>116.79</ele>
        <time>2023-06-10T09:37:38Z</time>
      </trkpt>
      <trkpt lat="48.88532" lon="2.03405">
        <ele>117.95</ele>
        <time>2023-06-10T09:37:52Z</time>
      </trkpt>
      <trkpt lat="48.88532" lon="2.03409">
        <ele>117.81</ele>
        <time>2023-06-10T09:37:54Z</time>
      </trkpt>
      <trkpt lat="48.88533" lon="2.0343">
        <ele>117.67</ele>
        <time>2023-06-10T09:38:04Z</time>
      </trkpt>
      <trkpt lat="48.88524" lon="2.03454">
        <ele>119</ele>
        <time>2023-06-10T09:38:19Z</time>
      </trkpt>
      <trkpt lat="48.88519" lon="2.03471">
        <ele>121.05</ele>
        <time>2023-06-10T09:38:31Z</time>
      </trkpt>
      <trkpt lat="48.88512" lon="2.03493">
        <ele>121.99</ele>
        <time>2023-06-10T09:38:48Z</time>
      </trkpt>
      <trkpt lat="48.8851" lon="2.03511">
        <ele>123.59</ele>
        <time>2023-06-10T09:39:04Z</time>
      </trkpt>
      <trkpt lat="48.88505" lon="2.03531">
        <ele>123.54</ele>
        <time>2023-06-10T09:39:21Z</time>
      </trkpt>
      <trkpt lat="48.88503" lon="2.03559">
        <ele>125.79</ele>
        <time>2023-06-10T09:39:37Z</time>
      </trkpt>
      <trkpt lat="48.88501" lon="2.03583">
        <ele>127.24</ele>
        <time>2023-06-10T09:39:51Z</time>
      </trkpt>
      <trkpt lat="48.885" lon="2.03593">
        <ele>128.37</ele>
        <time>2023-06-10T09:39:59Z</time>
      </trkpt>
      <trkpt lat="48.88497" lon="2.03615">
        <ele>129.35</ele>
        <time>2023-06-10T09:40:11Z</time>
      </trkpt>
      <trkpt lat="48.88495" lon="2.03622">
        <ele>129.01</ele>
        <time>2023-06-10T09:40:27Z</time>
      </trkpt>
      <trkpt lat="48.88493" lon="2.03627">
        <ele>129.2</ele>
        <time>2023-06-10T09:40:35Z</time>
      </trkpt>
      <trkpt lat="48.88493" lon="2.03632">
        <ele>129.68</ele>
        <time>2023-06-10T09:40:40Z</time>
      </trkpt>
      <trkpt lat="48.88501" lon="2.03639">
        <ele>127.91</ele>
        <time>2023-06-10T09:40:54Z</time>
      </trkpt>
      <trkpt lat="48.88504" lon="2.03643">
        <ele>127.56</ele>
        <time>2023-06-10T09:40:58Z</time>
      </trkpt>
      <trkpt lat="48.88519" lon="2.03663">
        <ele>125.74</ele>
        <time>2023-06-10T09:41:15Z</time>
      </trkpt>
      <trkpt lat="48.88522" lon="2.03665">
        <ele>125.63</ele>
        <time>2023-06-10T09:41:18Z</time>
      </trkpt>
      <trkpt lat="48.88536" lon="2.03691">
        <ele>124.54</ele>
        <time>2023-06-10T09:41:33Z</time>
      </trkpt>
      <trkpt lat="48.8854" lon="2.03694">
        <ele>123.96</ele>
        <time>2023-06-10T09:41:36Z</time>
      </trkpt>
      <trkpt lat="48.8855" lon="2.03702">
        <ele>122.46</ele>
        <time>2023-06-10T09:41:45Z</time>
      </trkpt>
      <trkpt lat="48.88562" lon="2.03722">
        <ele>120.53</ele>
        <time>2023-06-10T09:41:59Z</time>
      </trkpt>
      <trkpt lat="48.88567" lon="2.03738">
        <ele>118.37</ele>
        <time>2023-06-10T09:42:11Z</time>
      </trkpt>
      <trkpt lat="48.88571" lon="2.03743">
        <ele>115.48</ele>
        <time>2023-06-10T09:42:21Z</time>
      </trkpt>
      <trkpt lat="48.88573" lon="2.0375">
        <ele>114.66</ele>
        <time>2023-06-10T09:42:25Z</time>
      </trkpt>
      <trkpt lat="48.88572" lon="2.03756">
        <ele>114.43</ele>
        <time>2023-06-10T09:42:28Z</time>
      </trkpt>
      <trkpt lat="48.88575" lon="2.03758">
        <ele>114.45</ele>
        <time>2023-06-10T09:42:38Z</time>
      </trkpt>
      <trkpt lat="48.88578" lon="2.03758">
        <ele>114.16</ele>
        <time>2023-06-10T09:42:43Z</time>
      </trkpt>
      <trkpt lat="48.88582" lon="2.03768">
        <ele>111.7</ele>
        <time>2023-06-10T09:42:53Z</time>
      </trkpt>
      <trkpt lat="48.88589" lon="2.03782">
        <ele>109.68</ele>
        <time>2023-06-10T09:43:03Z</time>
      </trkpt>
      <trkpt lat="48.886" lon="2.03803">
        <ele>109.56</ele>
        <time>2023-06-10T09:43:15Z</time>
      </trkpt>
      <trkpt lat="48.88606" lon="2.03818">
        <ele>109.64</ele>
        <time>2023-06-10T09:43:24Z</time>
      </trkpt>
      <trkpt lat="48.88608" lon="2.03819">
        <ele>107.02</ele>
        <time>2023-06-10T09:43:26Z</time>
      </trkpt>
      <trkpt lat="48.88614" lon="2.03834">
        <ele>106.29</ele>
        <time>2023-06-10T09:43:38Z</time>
      </trkpt>
      <trkpt lat="48.88624" lon="2.03847">
        <ele>105.4</ele>
        <time>2023-06-10T09:43:44Z</time>
      </trkpt>
      <trkpt lat="48.88633" lon="2.03862">
        <ele>105.42</ele>
        <time>2023-06-10T09:44:00Z</time>
      </trkpt>
      <trkpt lat="48.88646" lon="2.03885">
        <ele>105.55</ele>
        <time>2023-06-10T09:44:15Z</time>
      </trkpt>
      <trkpt lat="48.88658" lon="2.03914">
        <ele>105.09</ele>
        <time>2023-06-10T09:44:30Z</time>
      </trkpt>
      <trkpt lat="48.88675" lon="2.03934">
        <ele>106.63</ele>
        <time>2023-06-10T09:44:46Z</time>
      </trkpt>
      <trkpt lat="48.88685" lon="2.03945">
        <ele>107.42</ele>
        <time>2023-06-10T09:44:55Z</time>
      </trkpt>
      <trkpt lat="48.88693" lon="2.03962">
        <ele>107.5</ele>
        <time>2023-06-10T09:45:10Z</time>
      </trkpt>
      <trkpt lat="48.88701" lon="2.03971">
        <ele>107.8</ele>
        <time>2023-06-10T09:45:20Z</time>
      </trkpt>
      <trkpt lat="48.88708" lon="2.03991">
        <ele>108.53</ele>
        <time>2023-06-10T09:45:33Z</time>
      </trkpt>
      <trkpt lat="48.88709" lon="2.03992">
        <ele>108.85</ele>
        <time>2023-06-10T09:45:34Z</time>
      </trkpt>
      <trkpt lat="48.88715" lon="2.04005">
        <ele>109.06</ele>
        <time>2023-06-10T09:45:42Z</time>
      </trkpt>
      <trkpt lat="48.88722" lon="2.04017">
        <ele>109.68</ele>
        <time>2023-06-10T09:45:53Z</time>
      </trkpt>
      <trkpt lat="48.88728" lon="2.04028">
        <ele>109.54</ele>
        <time>2023-06-10T09:46:03Z</time>
      </trkpt>
      <trkpt lat="48.88739" lon="2.04051">
        <ele>109.43</ele>
        <time>2023-06-10T09:46:18Z</time>
      </trkpt>
      <trkpt lat="48.88753" lon="2.04078">
        <ele>109.17</ele>
        <time>2023-06-10T09:46:36Z</time>
      </trkpt>
      <trkpt lat="48.88762" lon="2.04094">
        <ele>108.03</ele>
        <time>2023-06-10T09:46:50Z</time>
      </trkpt>
      <trkpt lat="48.88771" lon="2.04107">
        <ele>107.55</ele>
        <time>2023-06-10T09:46:59Z</time>
      </trkpt>
      <trkpt lat="48.88778" lon="2.04122">
        <ele>106.07</ele>
        <time>2023-06-10T09:47:10Z</time>
      </trkpt>
      <trkpt lat="48.88787" lon="2.04134">
        <ele>106.14</ele>
        <time>2023-06-10T09:47:20Z</time>
      </trkpt>
      <trkpt lat="48.88795" lon="2.04149">
        <ele>104.88</ele>
        <time>2023-06-10T09:47:31Z</time>
      </trkpt>
      <trkpt lat="48.88806" lon="2.04167">
        <ele>103.98</ele>
        <time>2023-06-10T09:47:44Z</time>
      </trkpt>
      <trkpt lat="48.88811" lon="2.04178">
        <ele>103.19</ele>
        <time>2023-06-10T09:47:51Z</time>
      </trkpt>
      <trkpt lat="48.88817" lon="2.04196">
        <ele>102.04</ele>
        <time>2023-06-10T09:48:03Z</time>
      </trkpt>
      <trkpt lat="48.88823" lon="2.04207">
        <ele>100.52</ele>
        <time>2023-06-10T09:48:15Z</time>
      </trkpt>
      <trkpt lat="48.88824" lon="2.04208">
        <ele>100.53</ele>
        <time>2023-06-10T09:48:16Z</time>
      </trkpt>
      <trkpt lat="48.88831" lon="2.04215">
        <ele>100.43</ele>
        <time>2023-06-10T09:48:23Z</time>
      </trkpt>
      <trkpt lat="48.88843" lon="2.04235">
        <ele>99.96</ele>
        <time>2023-06-10T09:48:34Z</time>
      </trkpt>
      <trkpt lat="48.88857" lon="2.04256">
        <ele>99.01</ele>
        <time>2023-06-10T09:48:50Z</time>
      </trkpt>
      <trkpt lat="48.88869" lon="2.0428">
        <ele>97.71</ele>
        <time>2023-06-10T09:49:04Z</time>
      </trkpt>
      <trkpt lat="48.88884" lon="2.04306">
        <ele>96.59</ele>
        <time>2023-06-10T09:49:21Z</time>
      </trkpt>
      <trkpt lat="48.88902" lon="2.04331">
        <ele>94.9</ele>
        <time>2023-06-10T09:49:39Z</time>
      </trkpt>
      <trkpt lat="48.88907" lon="2.04338">
        <ele>95.05</ele>
        <time>2023-06-10T09:49:43Z</time>
      </trkpt>
      <trkpt lat="48.88919" lon="2.04358">
        <ele>93.98</ele>
        <time>2023-06-10T09:49:56Z</time>
      </trkpt>
      <trkpt lat="48.88932" lon="2.04374">
        <ele>93.24</ele>
        <time>2023-06-10T09:50:06Z</time>
      </trkpt>
      <trkpt lat="48.88946" lon="2.04404">
        <ele>92.45</ele>
        <time>2023-06-10T09:50:22Z</time>
      </trkpt>
      <trkpt lat="48.88957" lon="2.04439">
        <ele>91.9</ele>
        <time>2023-06-10T09:50:36Z</time>
      </trkpt>
      <trkpt lat="48.88959" lon="2.04447">
        <ele>90.77</ele>
        <time>2023-06-10T09:50:40Z</time>
      </trkpt>
    </trkseg>
  </trk>
</gpx>